<?xml version="1.0" encoding="UTF-8" standalone="no" ?>
<gpx xmlns="http://www.topografix.com/GPX/1/1" xmlns:xsi="http://www.w3.org/2001/XMLSchema-instance" xsi:schemaLocation="http://www.topografix.com/GPX/1/1 http://www.topografix.com/GPX/1/1/gpx.xsd" version="1.1" creator="VisuGPX - https://www.visugpx.com">
  <metadata>
    <name>Rando du 23 avril 2015 a Perrigny</name>
    <desc><![CDATA[La vallée de la Valière a Conliège]]></desc>
  </metadata>
  <trk>
    <name><![CDATA[Perrigny 23 avr. 2015 ]]></name>
    <cmt><![CDATA[23 avr. 2015 08:33:12]]></cmt>
    <trkseg>
      <trkpt lat="46.66889" lon="5.58802">
        <ele>348</ele>
        <time>2015-04-23T06:33:13Z</time>
      </trkpt>
      <trkpt lat="46.66887" lon="5.58806">
        <ele>347</ele>
        <time>2015-04-23T06:33:30Z</time>
      </trkpt>
      <trkpt lat="46.66882" lon="5.5881">
        <ele>348</ele>
        <time>2015-04-23T06:33:42Z</time>
      </trkpt>
      <trkpt lat="46.66879" lon="5.58811">
        <ele>348</ele>
        <time>2015-04-23T06:33:49Z</time>
      </trkpt>
      <trkpt lat="46.66875" lon="5.58811">
        <ele>348</ele>
        <time>2015-04-23T06:33:54Z</time>
      </trkpt>
      <trkpt lat="46.66873" lon="5.58818">
        <ele>347</ele>
        <time>2015-04-23T06:34:54Z</time>
      </trkpt>
      <trkpt lat="46.66873" lon="5.58827">
        <ele>347</ele>
        <time>2015-04-23T06:35:47Z</time>
      </trkpt>
      <trkpt lat="46.66877" lon="5.58834">
        <ele>348</ele>
        <time>2015-04-23T06:36:12Z</time>
      </trkpt>
      <trkpt lat="46.66879" lon="5.58846">
        <ele>350</ele>
        <time>2015-04-23T06:37:07Z</time>
      </trkpt>
      <trkpt lat="46.66875" lon="5.58856">
        <ele>352</ele>
        <time>2015-04-23T06:37:52Z</time>
      </trkpt>
      <trkpt lat="46.6687" lon="5.58868">
        <ele>356</ele>
        <time>2015-04-23T06:38:02Z</time>
      </trkpt>
      <trkpt lat="46.66856" lon="5.58887">
        <ele>358</ele>
        <time>2015-04-23T06:38:25Z</time>
      </trkpt>
      <trkpt lat="46.66848" lon="5.58883">
        <ele>361</ele>
        <time>2015-04-23T06:38:58Z</time>
      </trkpt>
      <trkpt lat="46.66843" lon="5.58879">
        <ele>361</ele>
        <time>2015-04-23T06:39:10Z</time>
      </trkpt>
      <trkpt lat="46.6684" lon="5.5889">
        <ele>358</ele>
        <time>2015-04-23T06:39:51Z</time>
      </trkpt>
      <trkpt lat="46.66835" lon="5.58899">
        <ele>360</ele>
        <time>2015-04-23T06:40:52Z</time>
      </trkpt>
      <trkpt lat="46.66826" lon="5.58898">
        <ele>360</ele>
        <time>2015-04-23T06:41:00Z</time>
      </trkpt>
      <trkpt lat="46.66817" lon="5.58903">
        <ele>364</ele>
        <time>2015-04-23T06:41:09Z</time>
      </trkpt>
      <trkpt lat="46.6678" lon="5.58921">
        <ele>367</ele>
        <time>2015-04-23T06:41:43Z</time>
      </trkpt>
      <trkpt lat="46.66762" lon="5.58929">
        <ele>369</ele>
        <time>2015-04-23T06:42:02Z</time>
      </trkpt>
      <trkpt lat="46.66752" lon="5.58927">
        <ele>369</ele>
        <time>2015-04-23T06:42:10Z</time>
      </trkpt>
      <trkpt lat="46.66741" lon="5.5893">
        <ele>369</ele>
        <time>2015-04-23T06:42:22Z</time>
      </trkpt>
      <trkpt lat="46.66736" lon="5.58932">
        <ele>369</ele>
        <time>2015-04-23T06:42:30Z</time>
      </trkpt>
      <trkpt lat="46.66733" lon="5.58935">
        <ele>370</ele>
        <time>2015-04-23T06:42:38Z</time>
      </trkpt>
      <trkpt lat="46.6673" lon="5.58934">
        <ele>371</ele>
        <time>2015-04-23T06:43:00Z</time>
      </trkpt>
      <trkpt lat="46.66731" lon="5.58943">
        <ele>372</ele>
        <time>2015-04-23T06:43:57Z</time>
      </trkpt>
      <trkpt lat="46.66728" lon="5.58943">
        <ele>371</ele>
        <time>2015-04-23T06:45:05Z</time>
      </trkpt>
      <trkpt lat="46.66728" lon="5.58939">
        <ele>370</ele>
        <time>2015-04-23T06:45:17Z</time>
      </trkpt>
      <trkpt lat="46.66725" lon="5.58937">
        <ele>370</ele>
        <time>2015-04-23T06:45:34Z</time>
      </trkpt>
      <trkpt lat="46.66723" lon="5.58934">
        <ele>373</ele>
        <time>2015-04-23T06:46:12Z</time>
      </trkpt>
      <trkpt lat="46.66719" lon="5.58938">
        <ele>374</ele>
        <time>2015-04-23T06:46:20Z</time>
      </trkpt>
      <trkpt lat="46.6669" lon="5.58951">
        <ele>368</ele>
        <time>2015-04-23T06:47:10Z</time>
      </trkpt>
      <trkpt lat="46.66677" lon="5.58961">
        <ele>367</ele>
        <time>2015-04-23T06:47:25Z</time>
      </trkpt>
      <trkpt lat="46.66652" lon="5.58974">
        <ele>371</ele>
        <time>2015-04-23T06:47:46Z</time>
      </trkpt>
      <trkpt lat="46.66624" lon="5.59015">
        <ele>373</ele>
        <time>2015-04-23T06:48:18Z</time>
      </trkpt>
      <trkpt lat="46.66599" lon="5.59058">
        <ele>375</ele>
        <time>2015-04-23T06:48:47Z</time>
      </trkpt>
      <trkpt lat="46.66576" lon="5.59103">
        <ele>375</ele>
        <time>2015-04-23T06:49:19Z</time>
      </trkpt>
      <trkpt lat="46.66555" lon="5.59167">
        <ele>379</ele>
        <time>2015-04-23T06:49:57Z</time>
      </trkpt>
      <trkpt lat="46.66553" lon="5.59181">
        <ele>380</ele>
        <time>2015-04-23T06:50:07Z</time>
      </trkpt>
      <trkpt lat="46.66544" lon="5.59214">
        <ele>381</ele>
        <time>2015-04-23T06:50:36Z</time>
      </trkpt>
      <trkpt lat="46.66539" lon="5.59226">
        <ele>381</ele>
        <time>2015-04-23T06:50:46Z</time>
      </trkpt>
      <trkpt lat="46.66533" lon="5.59268">
        <ele>383</ele>
        <time>2015-04-23T06:51:11Z</time>
      </trkpt>
      <trkpt lat="46.6653" lon="5.59295">
        <ele>382</ele>
        <time>2015-04-23T06:51:25Z</time>
      </trkpt>
      <trkpt lat="46.66528" lon="5.59308">
        <ele>383</ele>
        <time>2015-04-23T06:51:31Z</time>
      </trkpt>
      <trkpt lat="46.66527" lon="5.59336">
        <ele>383</ele>
        <time>2015-04-23T06:51:49Z</time>
      </trkpt>
      <trkpt lat="46.66524" lon="5.59365">
        <ele>382</ele>
        <time>2015-04-23T06:52:06Z</time>
      </trkpt>
      <trkpt lat="46.66518" lon="5.59421">
        <ele>383</ele>
        <time>2015-04-23T06:52:36Z</time>
      </trkpt>
      <trkpt lat="46.66515" lon="5.59435">
        <ele>383</ele>
        <time>2015-04-23T06:52:43Z</time>
      </trkpt>
      <trkpt lat="46.66515" lon="5.59448">
        <ele>384</ele>
        <time>2015-04-23T06:52:52Z</time>
      </trkpt>
      <trkpt lat="46.6651" lon="5.59505">
        <ele>383</ele>
        <time>2015-04-23T06:53:27Z</time>
      </trkpt>
      <trkpt lat="46.66505" lon="5.59533">
        <ele>383</ele>
        <time>2015-04-23T06:53:43Z</time>
      </trkpt>
      <trkpt lat="46.66502" lon="5.59546">
        <ele>384</ele>
        <time>2015-04-23T06:53:51Z</time>
      </trkpt>
      <trkpt lat="46.66493" lon="5.59587">
        <ele>384</ele>
        <time>2015-04-23T06:54:14Z</time>
      </trkpt>
      <trkpt lat="46.66476" lon="5.59637">
        <ele>386</ele>
        <time>2015-04-23T06:54:46Z</time>
      </trkpt>
      <trkpt lat="46.66472" lon="5.59649">
        <ele>388</ele>
        <time>2015-04-23T06:54:54Z</time>
      </trkpt>
      <trkpt lat="46.66446" lon="5.5969">
        <ele>388</ele>
        <time>2015-04-23T06:55:28Z</time>
      </trkpt>
      <trkpt lat="46.66407" lon="5.59734">
        <ele>390</ele>
        <time>2015-04-23T06:56:06Z</time>
      </trkpt>
      <trkpt lat="46.66391" lon="5.59749">
        <ele>391</ele>
        <time>2015-04-23T06:56:23Z</time>
      </trkpt>
      <trkpt lat="46.66384" lon="5.59757">
        <ele>391</ele>
        <time>2015-04-23T06:56:30Z</time>
      </trkpt>
      <trkpt lat="46.66342" lon="5.59791">
        <ele>393</ele>
        <time>2015-04-23T06:57:05Z</time>
      </trkpt>
      <trkpt lat="46.66336" lon="5.59792">
        <ele>393</ele>
        <time>2015-04-23T06:57:32Z</time>
      </trkpt>
      <trkpt lat="46.66331" lon="5.59793">
        <ele>393</ele>
        <time>2015-04-23T06:58:28Z</time>
      </trkpt>
      <trkpt lat="46.66317" lon="5.59801">
        <ele>391</ele>
        <time>2015-04-23T06:58:44Z</time>
      </trkpt>
      <trkpt lat="46.66313" lon="5.59799">
        <ele>391</ele>
        <time>2015-04-23T06:58:50Z</time>
      </trkpt>
      <trkpt lat="46.66308" lon="5.59798">
        <ele>391</ele>
        <time>2015-04-23T06:58:53Z</time>
      </trkpt>
      <trkpt lat="46.66306" lon="5.598">
        <ele>390</ele>
        <time>2015-04-23T06:59:00Z</time>
      </trkpt>
      <trkpt lat="46.66308" lon="5.5981">
        <ele>387</ele>
        <time>2015-04-23T06:59:38Z</time>
      </trkpt>
      <trkpt lat="46.66309" lon="5.59815">
        <ele>385</ele>
        <time>2015-04-23T07:00:20Z</time>
      </trkpt>
      <trkpt lat="46.66304" lon="5.59818">
        <ele>385</ele>
        <time>2015-04-23T07:00:29Z</time>
      </trkpt>
      <trkpt lat="46.66295" lon="5.59821">
        <ele>386</ele>
        <time>2015-04-23T07:00:37Z</time>
      </trkpt>
      <trkpt lat="46.66287" lon="5.59823">
        <ele>387</ele>
        <time>2015-04-23T07:00:43Z</time>
      </trkpt>
      <trkpt lat="46.66283" lon="5.59826">
        <ele>387</ele>
        <time>2015-04-23T07:00:47Z</time>
      </trkpt>
      <trkpt lat="46.66278" lon="5.59829">
        <ele>387</ele>
        <time>2015-04-23T07:00:51Z</time>
      </trkpt>
      <trkpt lat="46.66269" lon="5.59832">
        <ele>388</ele>
        <time>2015-04-23T07:00:59Z</time>
      </trkpt>
      <trkpt lat="46.66264" lon="5.59834">
        <ele>388</ele>
        <time>2015-04-23T07:01:03Z</time>
      </trkpt>
      <trkpt lat="46.66258" lon="5.59834">
        <ele>388</ele>
        <time>2015-04-23T07:01:07Z</time>
      </trkpt>
      <trkpt lat="46.66253" lon="5.59835">
        <ele>388</ele>
        <time>2015-04-23T07:01:11Z</time>
      </trkpt>
      <trkpt lat="46.66249" lon="5.59838">
        <ele>388</ele>
        <time>2015-04-23T07:01:15Z</time>
      </trkpt>
      <trkpt lat="46.66244" lon="5.5984">
        <ele>388</ele>
        <time>2015-04-23T07:01:19Z</time>
      </trkpt>
      <trkpt lat="46.66229" lon="5.59841">
        <ele>387</ele>
        <time>2015-04-23T07:01:30Z</time>
      </trkpt>
      <trkpt lat="46.66224" lon="5.59844">
        <ele>387</ele>
        <time>2015-04-23T07:01:34Z</time>
      </trkpt>
      <trkpt lat="46.66219" lon="5.59844">
        <ele>387</ele>
        <time>2015-04-23T07:01:38Z</time>
      </trkpt>
      <trkpt lat="46.66176" lon="5.59849">
        <ele>390</ele>
        <time>2015-04-23T07:02:12Z</time>
      </trkpt>
      <trkpt lat="46.66136" lon="5.59858">
        <ele>391</ele>
        <time>2015-04-23T07:02:42Z</time>
      </trkpt>
      <trkpt lat="46.66117" lon="5.59864">
        <ele>393</ele>
        <time>2015-04-23T07:02:58Z</time>
      </trkpt>
      <trkpt lat="46.6608" lon="5.59874">
        <ele>391</ele>
        <time>2015-04-23T07:03:34Z</time>
      </trkpt>
      <trkpt lat="46.66043" lon="5.59893">
        <ele>392</ele>
        <time>2015-04-23T07:04:06Z</time>
      </trkpt>
      <trkpt lat="46.66006" lon="5.59914">
        <ele>390</ele>
        <time>2015-04-23T07:04:37Z</time>
      </trkpt>
      <trkpt lat="46.65987" lon="5.59923">
        <ele>391</ele>
        <time>2015-04-23T07:04:52Z</time>
      </trkpt>
      <trkpt lat="46.65951" lon="5.59946">
        <ele>397</ele>
        <time>2015-04-23T07:05:24Z</time>
      </trkpt>
      <trkpt lat="46.65943" lon="5.59951">
        <ele>398</ele>
        <time>2015-04-23T07:05:31Z</time>
      </trkpt>
      <trkpt lat="46.65935" lon="5.59959">
        <ele>398</ele>
        <time>2015-04-23T07:05:39Z</time>
      </trkpt>
      <trkpt lat="46.65932" lon="5.59963">
        <ele>398</ele>
        <time>2015-04-23T07:05:58Z</time>
      </trkpt>
      <trkpt lat="46.65923" lon="5.59969">
        <ele>400</ele>
        <time>2015-04-23T07:06:33Z</time>
      </trkpt>
      <trkpt lat="46.65901" lon="5.59993">
        <ele>399</ele>
        <time>2015-04-23T07:06:57Z</time>
      </trkpt>
      <trkpt lat="46.65875" lon="5.60034">
        <ele>402</ele>
        <time>2015-04-23T07:07:28Z</time>
      </trkpt>
      <trkpt lat="46.6587" lon="5.60047">
        <ele>402</ele>
        <time>2015-04-23T07:07:35Z</time>
      </trkpt>
      <trkpt lat="46.65861" lon="5.60065">
        <ele>401</ele>
        <time>2015-04-23T07:07:48Z</time>
      </trkpt>
      <trkpt lat="46.65853" lon="5.60074">
        <ele>402</ele>
        <time>2015-04-23T07:07:59Z</time>
      </trkpt>
      <trkpt lat="46.6585" lon="5.60078">
        <ele>401</ele>
        <time>2015-04-23T07:08:03Z</time>
      </trkpt>
      <trkpt lat="46.65848" lon="5.60085">
        <ele>401</ele>
        <time>2015-04-23T07:08:07Z</time>
      </trkpt>
      <trkpt lat="46.65843" lon="5.60099">
        <ele>402</ele>
        <time>2015-04-23T07:08:17Z</time>
      </trkpt>
      <trkpt lat="46.65835" lon="5.60108">
        <ele>402</ele>
        <time>2015-04-23T07:08:25Z</time>
      </trkpt>
      <trkpt lat="46.65831" lon="5.60113">
        <ele>402</ele>
        <time>2015-04-23T07:08:30Z</time>
      </trkpt>
      <trkpt lat="46.65828" lon="5.60117">
        <ele>402</ele>
        <time>2015-04-23T07:08:34Z</time>
      </trkpt>
      <trkpt lat="46.65824" lon="5.60121">
        <ele>402</ele>
        <time>2015-04-23T07:08:39Z</time>
      </trkpt>
      <trkpt lat="46.65819" lon="5.60124">
        <ele>403</ele>
        <time>2015-04-23T07:08:45Z</time>
      </trkpt>
      <trkpt lat="46.65815" lon="5.60126">
        <ele>403</ele>
        <time>2015-04-23T07:08:52Z</time>
      </trkpt>
      <trkpt lat="46.6581" lon="5.60129">
        <ele>403</ele>
        <time>2015-04-23T07:08:57Z</time>
      </trkpt>
      <trkpt lat="46.65805" lon="5.60139">
        <ele>402</ele>
        <time>2015-04-23T07:10:43Z</time>
      </trkpt>
      <trkpt lat="46.65802" lon="5.60147">
        <ele>404</ele>
        <time>2015-04-23T07:11:24Z</time>
      </trkpt>
      <trkpt lat="46.65802" lon="5.60162">
        <ele>411</ele>
        <time>2015-04-23T07:12:35Z</time>
      </trkpt>
      <trkpt lat="46.65798" lon="5.60179">
        <ele>412</ele>
        <time>2015-04-23T07:12:53Z</time>
      </trkpt>
      <trkpt lat="46.65798" lon="5.60204">
        <ele>411</ele>
        <time>2015-04-23T07:13:06Z</time>
      </trkpt>
      <trkpt lat="46.65803" lon="5.60218">
        <ele>410</ele>
        <time>2015-04-23T07:13:19Z</time>
      </trkpt>
      <trkpt lat="46.65802" lon="5.60232">
        <ele>409</ele>
        <time>2015-04-23T07:13:25Z</time>
      </trkpt>
      <trkpt lat="46.65801" lon="5.60245">
        <ele>409</ele>
        <time>2015-04-23T07:13:31Z</time>
      </trkpt>
      <trkpt lat="46.65803" lon="5.6026">
        <ele>409</ele>
        <time>2015-04-23T07:13:40Z</time>
      </trkpt>
      <trkpt lat="46.65811" lon="5.60267">
        <ele>409</ele>
        <time>2015-04-23T07:13:48Z</time>
      </trkpt>
      <trkpt lat="46.65815" lon="5.60279">
        <ele>409</ele>
        <time>2015-04-23T07:13:56Z</time>
      </trkpt>
      <trkpt lat="46.65815" lon="5.60307">
        <ele>409</ele>
        <time>2015-04-23T07:14:12Z</time>
      </trkpt>
      <trkpt lat="46.6582" lon="5.60314">
        <ele>409</ele>
        <time>2015-04-23T07:14:23Z</time>
      </trkpt>
      <trkpt lat="46.65825" lon="5.60313">
        <ele>409</ele>
        <time>2015-04-23T07:14:30Z</time>
      </trkpt>
      <trkpt lat="46.65825" lon="5.60307">
        <ele>409</ele>
        <time>2015-04-23T07:14:42Z</time>
      </trkpt>
      <trkpt lat="46.6582" lon="5.60308">
        <ele>409</ele>
        <time>2015-04-23T07:14:46Z</time>
      </trkpt>
      <trkpt lat="46.65816" lon="5.60312">
        <ele>409</ele>
        <time>2015-04-23T07:14:50Z</time>
      </trkpt>
      <trkpt lat="46.65815" lon="5.6032">
        <ele>409</ele>
        <time>2015-04-23T07:14:54Z</time>
      </trkpt>
      <trkpt lat="46.65815" lon="5.60326">
        <ele>410</ele>
        <time>2015-04-23T07:14:58Z</time>
      </trkpt>
      <trkpt lat="46.65818" lon="5.6034">
        <ele>409</ele>
        <time>2015-04-23T07:15:06Z</time>
      </trkpt>
      <trkpt lat="46.65827" lon="5.6038">
        <ele>409</ele>
        <time>2015-04-23T07:15:34Z</time>
      </trkpt>
      <trkpt lat="46.65833" lon="5.604">
        <ele>407</ele>
        <time>2015-04-23T07:15:50Z</time>
      </trkpt>
      <trkpt lat="46.65847" lon="5.60421">
        <ele>408</ele>
        <time>2015-04-23T07:16:08Z</time>
      </trkpt>
      <trkpt lat="46.65852" lon="5.60433">
        <ele>407</ele>
        <time>2015-04-23T07:16:17Z</time>
      </trkpt>
      <trkpt lat="46.6586" lon="5.60437">
        <ele>407</ele>
        <time>2015-04-23T07:16:27Z</time>
      </trkpt>
      <trkpt lat="46.6587" lon="5.60437">
        <ele>407</ele>
        <time>2015-04-23T07:16:35Z</time>
      </trkpt>
      <trkpt lat="46.65874" lon="5.60449">
        <ele>407</ele>
        <time>2015-04-23T07:16:44Z</time>
      </trkpt>
      <trkpt lat="46.6589" lon="5.60464">
        <ele>409</ele>
        <time>2015-04-23T07:17:00Z</time>
      </trkpt>
      <trkpt lat="46.65902" lon="5.60486">
        <ele>411</ele>
        <time>2015-04-23T07:17:15Z</time>
      </trkpt>
      <trkpt lat="46.65935" lon="5.60515">
        <ele>410</ele>
        <time>2015-04-23T07:17:50Z</time>
      </trkpt>
      <trkpt lat="46.65943" lon="5.60523">
        <ele>410</ele>
        <time>2015-04-23T07:17:59Z</time>
      </trkpt>
      <trkpt lat="46.65947" lon="5.60535">
        <ele>409</ele>
        <time>2015-04-23T07:18:18Z</time>
      </trkpt>
      <trkpt lat="46.65955" lon="5.6054">
        <ele>409</ele>
        <time>2015-04-23T07:18:36Z</time>
      </trkpt>
      <trkpt lat="46.65964" lon="5.60545">
        <ele>408</ele>
        <time>2015-04-23T07:18:43Z</time>
      </trkpt>
      <trkpt lat="46.65972" lon="5.60544">
        <ele>404</ele>
        <time>2015-04-23T07:19:24Z</time>
      </trkpt>
      <trkpt lat="46.65996" lon="5.60567">
        <ele>407</ele>
        <time>2015-04-23T07:19:48Z</time>
      </trkpt>
      <trkpt lat="46.66003" lon="5.60576">
        <ele>407</ele>
        <time>2015-04-23T07:19:57Z</time>
      </trkpt>
      <trkpt lat="46.66038" lon="5.60597">
        <ele>411</ele>
        <time>2015-04-23T07:20:29Z</time>
      </trkpt>
      <trkpt lat="46.66055" lon="5.60607">
        <ele>413</ele>
        <time>2015-04-23T07:20:43Z</time>
      </trkpt>
      <trkpt lat="46.66065" lon="5.6061">
        <ele>413</ele>
        <time>2015-04-23T07:20:50Z</time>
      </trkpt>
      <trkpt lat="46.66073" lon="5.60615">
        <ele>413</ele>
        <time>2015-04-23T07:20:57Z</time>
      </trkpt>
      <trkpt lat="46.66083" lon="5.60618">
        <ele>413</ele>
        <time>2015-04-23T07:21:05Z</time>
      </trkpt>
      <trkpt lat="46.66088" lon="5.6062">
        <ele>413</ele>
        <time>2015-04-23T07:21:17Z</time>
      </trkpt>
      <trkpt lat="46.66097" lon="5.60625">
        <ele>413</ele>
        <time>2015-04-23T07:21:27Z</time>
      </trkpt>
      <trkpt lat="46.66099" lon="5.60633">
        <ele>413</ele>
        <time>2015-04-23T07:21:43Z</time>
      </trkpt>
      <trkpt lat="46.66105" lon="5.60637">
        <ele>413</ele>
        <time>2015-04-23T07:22:05Z</time>
      </trkpt>
      <trkpt lat="46.66114" lon="5.60643">
        <ele>413</ele>
        <time>2015-04-23T07:22:13Z</time>
      </trkpt>
      <trkpt lat="46.66133" lon="5.60652">
        <ele>415</ele>
        <time>2015-04-23T07:22:26Z</time>
      </trkpt>
      <trkpt lat="46.66142" lon="5.60658">
        <ele>415</ele>
        <time>2015-04-23T07:22:34Z</time>
      </trkpt>
      <trkpt lat="46.6615" lon="5.60666">
        <ele>415</ele>
        <time>2015-04-23T07:22:42Z</time>
      </trkpt>
      <trkpt lat="46.66166" lon="5.6068">
        <ele>418</ele>
        <time>2015-04-23T07:22:59Z</time>
      </trkpt>
      <trkpt lat="46.66176" lon="5.60681">
        <ele>418</ele>
        <time>2015-04-23T07:23:17Z</time>
      </trkpt>
      <trkpt lat="46.66182" lon="5.60692">
        <ele>418</ele>
        <time>2015-04-23T07:23:25Z</time>
      </trkpt>
      <trkpt lat="46.66191" lon="5.60697">
        <ele>417</ele>
        <time>2015-04-23T07:23:33Z</time>
      </trkpt>
      <trkpt lat="46.66231" lon="5.60733">
        <ele>418</ele>
        <time>2015-04-23T07:24:09Z</time>
      </trkpt>
      <trkpt lat="46.66238" lon="5.60743">
        <ele>419</ele>
        <time>2015-04-23T07:24:17Z</time>
      </trkpt>
      <trkpt lat="46.66244" lon="5.60754">
        <ele>419</ele>
        <time>2015-04-23T07:24:24Z</time>
      </trkpt>
      <trkpt lat="46.66251" lon="5.60764">
        <ele>420</ele>
        <time>2015-04-23T07:24:32Z</time>
      </trkpt>
      <trkpt lat="46.66264" lon="5.60787">
        <ele>422</ele>
        <time>2015-04-23T07:24:49Z</time>
      </trkpt>
      <trkpt lat="46.66271" lon="5.60795">
        <ele>423</ele>
        <time>2015-04-23T07:24:59Z</time>
      </trkpt>
      <trkpt lat="46.66275" lon="5.60808">
        <ele>423</ele>
        <time>2015-04-23T07:25:06Z</time>
      </trkpt>
      <trkpt lat="46.66291" lon="5.60859">
        <ele>424</ele>
        <time>2015-04-23T07:25:37Z</time>
      </trkpt>
      <trkpt lat="46.66315" lon="5.60905">
        <ele>423</ele>
        <time>2015-04-23T07:26:22Z</time>
      </trkpt>
      <trkpt lat="46.66323" lon="5.6096">
        <ele>426</ele>
        <time>2015-04-23T07:26:52Z</time>
      </trkpt>
      <trkpt lat="46.66322" lon="5.60975">
        <ele>426</ele>
        <time>2015-04-23T07:27:01Z</time>
      </trkpt>
      <trkpt lat="46.6633" lon="5.61031">
        <ele>427</ele>
        <time>2015-04-23T07:27:34Z</time>
      </trkpt>
      <trkpt lat="46.66321" lon="5.61101">
        <ele>425</ele>
        <time>2015-04-23T07:28:06Z</time>
      </trkpt>
      <trkpt lat="46.66318" lon="5.61114">
        <ele>424</ele>
        <time>2015-04-23T07:28:13Z</time>
      </trkpt>
      <trkpt lat="46.66309" lon="5.61169">
        <ele>424</ele>
        <time>2015-04-23T07:28:44Z</time>
      </trkpt>
      <trkpt lat="46.66305" lon="5.61182">
        <ele>423</ele>
        <time>2015-04-23T07:28:52Z</time>
      </trkpt>
      <trkpt lat="46.66295" lon="5.6122">
        <ele>423</ele>
        <time>2015-04-23T07:29:19Z</time>
      </trkpt>
      <trkpt lat="46.66284" lon="5.61244">
        <ele>425</ele>
        <time>2015-04-23T07:29:39Z</time>
      </trkpt>
      <trkpt lat="46.66282" lon="5.61249">
        <ele>425</ele>
        <time>2015-04-23T07:30:26Z</time>
      </trkpt>
      <trkpt lat="46.66283" lon="5.61246">
        <ele>428</ele>
        <time>2015-04-23T07:32:47Z</time>
      </trkpt>
      <trkpt lat="46.66282" lon="5.61244">
        <ele>429</ele>
        <time>2015-04-23T07:33:21Z</time>
      </trkpt>
      <trkpt lat="46.66282" lon="5.61243">
        <ele>429</ele>
        <time>2015-04-23T07:33:43Z</time>
      </trkpt>
      <trkpt lat="46.65484" lon="5.61344">
        <ele>440</ele>
        <time>2015-04-23T07:46:44Z</time>
      </trkpt>
      <trkpt lat="46.65511" lon="5.6134">
        <ele>421</ele>
        <time>2015-04-23T07:46:46Z</time>
      </trkpt>
      <trkpt lat="46.65514" lon="5.61353">
        <ele>415</ele>
        <time>2015-04-23T07:46:49Z</time>
      </trkpt>
      <trkpt lat="46.65522" lon="5.61346">
        <ele>414</ele>
        <time>2015-04-23T07:46:56Z</time>
      </trkpt>
      <trkpt lat="46.65522" lon="5.61337">
        <ele>422</ele>
        <time>2015-04-23T07:47:01Z</time>
      </trkpt>
      <trkpt lat="46.65519" lon="5.61322">
        <ele>435</ele>
        <time>2015-04-23T07:47:11Z</time>
      </trkpt>
      <trkpt lat="46.65512" lon="5.61309">
        <ele>446</ele>
        <time>2015-04-23T07:47:42Z</time>
      </trkpt>
      <trkpt lat="46.65507" lon="5.61298">
        <ele>447</ele>
        <time>2015-04-23T07:47:54Z</time>
      </trkpt>
      <trkpt lat="46.65502" lon="5.61285">
        <ele>444</ele>
        <time>2015-04-23T07:48:04Z</time>
      </trkpt>
      <trkpt lat="46.655" lon="5.61273">
        <ele>444</ele>
        <time>2015-04-23T07:48:23Z</time>
      </trkpt>
      <trkpt lat="46.65494" lon="5.61271">
        <ele>443</ele>
        <time>2015-04-23T07:49:59Z</time>
      </trkpt>
      <trkpt lat="46.6549" lon="5.61275">
        <ele>443</ele>
        <time>2015-04-23T07:50:08Z</time>
      </trkpt>
      <trkpt lat="46.65488" lon="5.61271">
        <ele>437</ele>
        <time>2015-04-23T07:50:35Z</time>
      </trkpt>
      <trkpt lat="46.65479" lon="5.61267">
        <ele>437</ele>
        <time>2015-04-23T07:50:45Z</time>
      </trkpt>
      <trkpt lat="46.65474" lon="5.61256">
        <ele>437</ele>
        <time>2015-04-23T07:50:55Z</time>
      </trkpt>
      <trkpt lat="46.65469" lon="5.61241">
        <ele>436</ele>
        <time>2015-04-23T07:51:47Z</time>
      </trkpt>
      <trkpt lat="46.65461" lon="5.61231">
        <ele>436</ele>
        <time>2015-04-23T07:51:57Z</time>
      </trkpt>
      <trkpt lat="46.65457" lon="5.61218">
        <ele>436</ele>
        <time>2015-04-23T07:52:05Z</time>
      </trkpt>
      <trkpt lat="46.65452" lon="5.61207">
        <ele>434</ele>
        <time>2015-04-23T07:52:14Z</time>
      </trkpt>
      <trkpt lat="46.65433" lon="5.61157">
        <ele>434</ele>
        <time>2015-04-23T07:52:48Z</time>
      </trkpt>
      <trkpt lat="46.65431" lon="5.61129">
        <ele>435</ele>
        <time>2015-04-23T07:53:04Z</time>
      </trkpt>
      <trkpt lat="46.65424" lon="5.61102">
        <ele>435</ele>
        <time>2015-04-23T07:53:19Z</time>
      </trkpt>
      <trkpt lat="46.65424" lon="5.61087">
        <ele>435</ele>
        <time>2015-04-23T07:53:26Z</time>
      </trkpt>
      <trkpt lat="46.65422" lon="5.61081">
        <ele>436</ele>
        <time>2015-04-23T07:53:32Z</time>
      </trkpt>
      <trkpt lat="46.65421" lon="5.61074">
        <ele>435</ele>
        <time>2015-04-23T07:53:37Z</time>
      </trkpt>
      <trkpt lat="46.6542" lon="5.61067">
        <ele>436</ele>
        <time>2015-04-23T07:53:42Z</time>
      </trkpt>
      <trkpt lat="46.65419" lon="5.61053">
        <ele>438</ele>
        <time>2015-04-23T07:53:52Z</time>
      </trkpt>
      <trkpt lat="46.65416" lon="5.61046">
        <ele>439</ele>
        <time>2015-04-23T07:53:58Z</time>
      </trkpt>
      <trkpt lat="46.65412" lon="5.61032">
        <ele>439</ele>
        <time>2015-04-23T07:54:06Z</time>
      </trkpt>
      <trkpt lat="46.65411" lon="5.61025">
        <ele>439</ele>
        <time>2015-04-23T07:54:10Z</time>
      </trkpt>
      <trkpt lat="46.65408" lon="5.61019">
        <ele>440</ele>
        <time>2015-04-23T07:54:13Z</time>
      </trkpt>
      <trkpt lat="46.65405" lon="5.61007">
        <ele>441</ele>
        <time>2015-04-23T07:54:25Z</time>
      </trkpt>
      <trkpt lat="46.65403" lon="5.61">
        <ele>441</ele>
        <time>2015-04-23T07:54:30Z</time>
      </trkpt>
      <trkpt lat="46.65398" lon="5.60971">
        <ele>444</ele>
        <time>2015-04-23T07:54:48Z</time>
      </trkpt>
      <trkpt lat="46.65393" lon="5.60966">
        <ele>444</ele>
        <time>2015-04-23T07:54:51Z</time>
      </trkpt>
      <trkpt lat="46.6539" lon="5.60952">
        <ele>444</ele>
        <time>2015-04-23T07:54:57Z</time>
      </trkpt>
      <trkpt lat="46.65384" lon="5.60927">
        <ele>443</ele>
        <time>2015-04-23T07:55:12Z</time>
      </trkpt>
      <trkpt lat="46.65377" lon="5.60901">
        <ele>443</ele>
        <time>2015-04-23T07:55:26Z</time>
      </trkpt>
      <trkpt lat="46.65374" lon="5.60889">
        <ele>444</ele>
        <time>2015-04-23T07:55:33Z</time>
      </trkpt>
      <trkpt lat="46.6537" lon="5.60876">
        <ele>444</ele>
        <time>2015-04-23T07:55:40Z</time>
      </trkpt>
      <trkpt lat="46.6536" lon="5.60853">
        <ele>443</ele>
        <time>2015-04-23T07:55:57Z</time>
      </trkpt>
      <trkpt lat="46.65339" lon="5.60791">
        <ele>446</ele>
        <time>2015-04-23T07:56:32Z</time>
      </trkpt>
      <trkpt lat="46.65338" lon="5.60784">
        <ele>446</ele>
        <time>2015-04-23T07:56:34Z</time>
      </trkpt>
      <trkpt lat="46.65331" lon="5.60775">
        <ele>444</ele>
        <time>2015-04-23T07:56:45Z</time>
      </trkpt>
      <trkpt lat="46.65328" lon="5.60764">
        <ele>446</ele>
        <time>2015-04-23T07:57:27Z</time>
      </trkpt>
      <trkpt lat="46.65319" lon="5.60763">
        <ele>452</ele>
        <time>2015-04-23T08:00:16Z</time>
      </trkpt>
      <trkpt lat="46.65311" lon="5.60754">
        <ele>450</ele>
        <time>2015-04-23T08:00:31Z</time>
      </trkpt>
      <trkpt lat="46.65093" lon="5.60627">
        <ele>454</ele>
        <time>2015-04-23T08:03:31Z</time>
      </trkpt>
      <trkpt lat="46.65083" lon="5.60632">
        <ele>459</ele>
        <time>2015-04-23T08:03:41Z</time>
      </trkpt>
      <trkpt lat="46.65064" lon="5.60628">
        <ele>462</ele>
        <time>2015-04-23T08:03:56Z</time>
      </trkpt>
      <trkpt lat="46.65059" lon="5.60629">
        <ele>462</ele>
        <time>2015-04-23T08:04:00Z</time>
      </trkpt>
      <trkpt lat="46.65045" lon="5.60637">
        <ele>460</ele>
        <time>2015-04-23T08:04:15Z</time>
      </trkpt>
      <trkpt lat="46.65041" lon="5.60637">
        <ele>460</ele>
        <time>2015-04-23T08:04:19Z</time>
      </trkpt>
      <trkpt lat="46.65036" lon="5.60641">
        <ele>459</ele>
        <time>2015-04-23T08:04:25Z</time>
      </trkpt>
      <trkpt lat="46.65031" lon="5.60643">
        <ele>460</ele>
        <time>2015-04-23T08:04:29Z</time>
      </trkpt>
      <trkpt lat="46.65011" lon="5.60652">
        <ele>458</ele>
        <time>2015-04-23T08:04:45Z</time>
      </trkpt>
      <trkpt lat="46.65006" lon="5.60654">
        <ele>458</ele>
        <time>2015-04-23T08:04:49Z</time>
      </trkpt>
      <trkpt lat="46.65" lon="5.60655">
        <ele>459</ele>
        <time>2015-04-23T08:04:53Z</time>
      </trkpt>
      <trkpt lat="46.64991" lon="5.6066">
        <ele>458</ele>
        <time>2015-04-23T08:05:01Z</time>
      </trkpt>
      <trkpt lat="46.64986" lon="5.60662">
        <ele>458</ele>
        <time>2015-04-23T08:05:05Z</time>
      </trkpt>
      <trkpt lat="46.64971" lon="5.60669">
        <ele>457</ele>
        <time>2015-04-23T08:05:18Z</time>
      </trkpt>
      <trkpt lat="46.64953" lon="5.60675">
        <ele>457</ele>
        <time>2015-04-23T08:05:32Z</time>
      </trkpt>
      <trkpt lat="46.64944" lon="5.60678">
        <ele>458</ele>
        <time>2015-04-23T08:05:40Z</time>
      </trkpt>
      <trkpt lat="46.64916" lon="5.60687">
        <ele>459</ele>
        <time>2015-04-23T08:06:03Z</time>
      </trkpt>
      <trkpt lat="46.64906" lon="5.60691">
        <ele>461</ele>
        <time>2015-04-23T08:06:10Z</time>
      </trkpt>
      <trkpt lat="46.64871" lon="5.60711">
        <ele>463</ele>
        <time>2015-04-23T08:06:40Z</time>
      </trkpt>
      <trkpt lat="46.64844" lon="5.60726">
        <ele>462</ele>
        <time>2015-04-23T08:07:04Z</time>
      </trkpt>
      <trkpt lat="46.64769" lon="5.60791">
        <ele>493.5</ele>
        <time>2015-04-23T08:08:14Z</time>
      </trkpt>
      <trkpt lat="46.64754" lon="5.6077">
        <ele>466</ele>
        <time>2015-04-23T08:08:20Z</time>
      </trkpt>
      <trkpt lat="46.64739" lon="5.60769">
        <ele>473</ele>
        <time>2015-04-23T08:08:30Z</time>
      </trkpt>
      <trkpt lat="46.64736" lon="5.60774">
        <ele>473</ele>
        <time>2015-04-23T08:08:34Z</time>
      </trkpt>
      <trkpt lat="46.64722" lon="5.60783">
        <ele>469</ele>
        <time>2015-04-23T08:08:47Z</time>
      </trkpt>
      <trkpt lat="46.64717" lon="5.60785">
        <ele>470</ele>
        <time>2015-04-23T08:08:53Z</time>
      </trkpt>
      <trkpt lat="46.64715" lon="5.60787">
        <ele>471</ele>
        <time>2015-04-23T08:08:59Z</time>
      </trkpt>
      <trkpt lat="46.64712" lon="5.60787">
        <ele>469</ele>
        <time>2015-04-23T08:09:53Z</time>
      </trkpt>
      <trkpt lat="46.64708" lon="5.60799">
        <ele>469</ele>
        <time>2015-04-23T08:10:04Z</time>
      </trkpt>
      <trkpt lat="46.64699" lon="5.60804">
        <ele>469</ele>
        <time>2015-04-23T08:10:09Z</time>
      </trkpt>
      <trkpt lat="46.64699" lon="5.60795">
        <ele>469</ele>
        <time>2015-04-23T08:10:23Z</time>
      </trkpt>
      <trkpt lat="46.64694" lon="5.60798">
        <ele>468</ele>
        <time>2015-04-23T08:11:02Z</time>
      </trkpt>
      <trkpt lat="46.64693" lon="5.60812">
        <ele>468</ele>
        <time>2015-04-23T08:11:10Z</time>
      </trkpt>
      <trkpt lat="46.64692" lon="5.60808">
        <ele>467</ele>
        <time>2015-04-23T08:11:19Z</time>
      </trkpt>
      <trkpt lat="46.64706" lon="5.60795">
        <ele>466</ele>
        <time>2015-04-23T08:11:22Z</time>
      </trkpt>
      <trkpt lat="46.6471" lon="5.60788">
        <ele>460</ele>
        <time>2015-04-23T08:12:23Z</time>
      </trkpt>
      <trkpt lat="46.64714" lon="5.60786">
        <ele>465</ele>
        <time>2015-04-23T08:12:46Z</time>
      </trkpt>
      <trkpt lat="46.64715" lon="5.60781">
        <ele>474</ele>
        <time>2015-04-23T08:13:00Z</time>
      </trkpt>
      <trkpt lat="46.6472" lon="5.60788">
        <ele>475</ele>
        <time>2015-04-23T08:13:14Z</time>
      </trkpt>
      <trkpt lat="46.64721" lon="5.60791">
        <ele>474</ele>
        <time>2015-04-23T08:13:20Z</time>
      </trkpt>
      <trkpt lat="46.64726" lon="5.60787">
        <ele>472</ele>
        <time>2015-04-23T08:13:27Z</time>
      </trkpt>
      <trkpt lat="46.64731" lon="5.60785">
        <ele>470</ele>
        <time>2015-04-23T08:13:34Z</time>
      </trkpt>
      <trkpt lat="46.6474" lon="5.60787">
        <ele>466</ele>
        <time>2015-04-23T08:13:44Z</time>
      </trkpt>
      <trkpt lat="46.64754" lon="5.60772">
        <ele>463</ele>
        <time>2015-04-23T08:14:00Z</time>
      </trkpt>
      <trkpt lat="46.6476" lon="5.60768">
        <ele>463</ele>
        <time>2015-04-23T08:14:10Z</time>
      </trkpt>
      <trkpt lat="46.64774" lon="5.60765">
        <ele>464</ele>
        <time>2015-04-23T08:14:22Z</time>
      </trkpt>
      <trkpt lat="46.6477" lon="5.60766">
        <ele>463</ele>
        <time>2015-04-23T08:15:12Z</time>
      </trkpt>
      <trkpt lat="46.64761" lon="5.60762">
        <ele>464</ele>
        <time>2015-04-23T08:15:28Z</time>
      </trkpt>
      <trkpt lat="46.64752" lon="5.60768">
        <ele>464</ele>
        <time>2015-04-23T08:15:42Z</time>
      </trkpt>
      <trkpt lat="46.64743" lon="5.60771">
        <ele>465</ele>
        <time>2015-04-23T08:15:52Z</time>
      </trkpt>
      <trkpt lat="46.64716" lon="5.60784">
        <ele>468</ele>
        <time>2015-04-23T08:16:16Z</time>
      </trkpt>
      <trkpt lat="46.64717" lon="5.60792">
        <ele>476</ele>
        <time>2015-04-23T08:17:43Z</time>
      </trkpt>
      <trkpt lat="46.64716" lon="5.60793">
        <ele>472</ele>
        <time>2015-04-23T08:18:53Z</time>
      </trkpt>
      <trkpt lat="46.6471" lon="5.60802">
        <ele>471</ele>
        <time>2015-04-23T08:19:41Z</time>
      </trkpt>
      <trkpt lat="46.64714" lon="5.60816">
        <ele>470</ele>
        <time>2015-04-23T08:19:50Z</time>
      </trkpt>
      <trkpt lat="46.64711" lon="5.60829">
        <ele>470</ele>
        <time>2015-04-23T08:19:57Z</time>
      </trkpt>
      <trkpt lat="46.64704" lon="5.60839">
        <ele>472</ele>
        <time>2015-04-23T08:20:05Z</time>
      </trkpt>
      <trkpt lat="46.64689" lon="5.60851">
        <ele>474</ele>
        <time>2015-04-23T08:20:28Z</time>
      </trkpt>
      <trkpt lat="46.64694" lon="5.60843">
        <ele>469</ele>
        <time>2015-04-23T08:21:35Z</time>
      </trkpt>
      <trkpt lat="46.64691" lon="5.6083">
        <ele>468</ele>
        <time>2015-04-23T08:21:52Z</time>
      </trkpt>
      <trkpt lat="46.64695" lon="5.60824">
        <ele>467</ele>
        <time>2015-04-23T08:22:18Z</time>
      </trkpt>
      <trkpt lat="46.64688" lon="5.60715">
        <ele>441</ele>
        <time>2015-04-23T08:23:51Z</time>
      </trkpt>
      <trkpt lat="46.6469" lon="5.60716">
        <ele>439</ele>
        <time>2015-04-23T08:24:19Z</time>
      </trkpt>
      <trkpt lat="46.64684" lon="5.60716">
        <ele>436</ele>
        <time>2015-04-23T08:24:36Z</time>
      </trkpt>
      <trkpt lat="46.64686" lon="5.60726">
        <ele>436</ele>
        <time>2015-04-23T08:24:48Z</time>
      </trkpt>
      <trkpt lat="46.64687" lon="5.60734">
        <ele>432</ele>
        <time>2015-04-23T08:25:54Z</time>
      </trkpt>
      <trkpt lat="46.64686" lon="5.60725">
        <ele>422</ele>
        <time>2015-04-23T08:26:23Z</time>
      </trkpt>
      <trkpt lat="46.64682" lon="5.6073">
        <ele>427</ele>
        <time>2015-04-23T08:27:26Z</time>
      </trkpt>
      <trkpt lat="46.64684" lon="5.6082">
        <ele>469.8</ele>
        <time>2015-04-23T08:29:16Z</time>
      </trkpt>
      <trkpt lat="46.64683" lon="5.60829">
        <ele>469</ele>
        <time>2015-04-23T08:29:38Z</time>
      </trkpt>
      <trkpt lat="46.64692" lon="5.60832">
        <ele>471</ele>
        <time>2015-04-23T08:29:48Z</time>
      </trkpt>
      <trkpt lat="46.64697" lon="5.60831">
        <ele>473</ele>
        <time>2015-04-23T08:29:53Z</time>
      </trkpt>
      <trkpt lat="46.64701" lon="5.60827">
        <ele>469</ele>
        <time>2015-04-23T08:30:09Z</time>
      </trkpt>
      <trkpt lat="46.64698" lon="5.6084">
        <ele>467</ele>
        <time>2015-04-23T08:30:27Z</time>
      </trkpt>
      <trkpt lat="46.64689" lon="5.60844">
        <ele>467</ele>
        <time>2015-04-23T08:30:38Z</time>
      </trkpt>
      <trkpt lat="46.6468" lon="5.60848">
        <ele>466</ele>
        <time>2015-04-23T08:30:52Z</time>
      </trkpt>
      <trkpt lat="46.64686" lon="5.60859">
        <ele>465</ele>
        <time>2015-04-23T08:31:05Z</time>
      </trkpt>
      <trkpt lat="46.64689" lon="5.60864">
        <ele>466</ele>
        <time>2015-04-23T08:31:21Z</time>
      </trkpt>
      <trkpt lat="46.64698" lon="5.6087">
        <ele>467</ele>
        <time>2015-04-23T08:31:26Z</time>
      </trkpt>
      <trkpt lat="46.64703" lon="5.60874">
        <ele>468</ele>
        <time>2015-04-23T08:31:45Z</time>
      </trkpt>
      <trkpt lat="46.64706" lon="5.60857">
        <ele>468</ele>
        <time>2015-04-23T08:32:04Z</time>
      </trkpt>
      <trkpt lat="46.64712" lon="5.60815">
        <ele>476</ele>
        <time>2015-04-23T08:32:39Z</time>
      </trkpt>
      <trkpt lat="46.6471" lon="5.60802">
        <ele>477</ele>
        <time>2015-04-23T08:32:51Z</time>
      </trkpt>
      <trkpt lat="46.64716" lon="5.60792">
        <ele>476</ele>
        <time>2015-04-23T08:32:59Z</time>
      </trkpt>
      <trkpt lat="46.64714" lon="5.60778">
        <ele>476</ele>
        <time>2015-04-23T08:33:08Z</time>
      </trkpt>
      <trkpt lat="46.64695" lon="5.60775">
        <ele>476</ele>
        <time>2015-04-23T08:33:22Z</time>
      </trkpt>
      <trkpt lat="46.64685" lon="5.60776">
        <ele>476</ele>
        <time>2015-04-23T08:33:31Z</time>
      </trkpt>
      <trkpt lat="46.64676" lon="5.60777">
        <ele>477</ele>
        <time>2015-04-23T08:33:40Z</time>
      </trkpt>
      <trkpt lat="46.64667" lon="5.60779">
        <ele>477</ele>
        <time>2015-04-23T08:33:50Z</time>
      </trkpt>
      <trkpt lat="46.64647" lon="5.60779">
        <ele>476</ele>
        <time>2015-04-23T08:34:08Z</time>
      </trkpt>
      <trkpt lat="46.64637" lon="5.60779">
        <ele>477</ele>
        <time>2015-04-23T08:34:18Z</time>
      </trkpt>
      <trkpt lat="46.64626" lon="5.6078">
        <ele>478</ele>
        <time>2015-04-23T08:34:50Z</time>
      </trkpt>
      <trkpt lat="46.64617" lon="5.60775">
        <ele>478</ele>
        <time>2015-04-23T08:35:00Z</time>
      </trkpt>
      <trkpt lat="46.64607" lon="5.60775">
        <ele>477</ele>
        <time>2015-04-23T08:35:08Z</time>
      </trkpt>
      <trkpt lat="46.64597" lon="5.60771">
        <ele>475</ele>
        <time>2015-04-23T08:35:19Z</time>
      </trkpt>
      <trkpt lat="46.64578" lon="5.60774">
        <ele>472</ele>
        <time>2015-04-23T08:35:33Z</time>
      </trkpt>
      <trkpt lat="46.64558" lon="5.60774">
        <ele>472</ele>
        <time>2015-04-23T08:35:51Z</time>
      </trkpt>
      <trkpt lat="46.64548" lon="5.60769">
        <ele>473</ele>
        <time>2015-04-23T08:35:58Z</time>
      </trkpt>
      <trkpt lat="46.64541" lon="5.60759">
        <ele>473</ele>
        <time>2015-04-23T08:36:05Z</time>
      </trkpt>
      <trkpt lat="46.64531" lon="5.60758">
        <ele>473</ele>
        <time>2015-04-23T08:36:14Z</time>
      </trkpt>
      <trkpt lat="46.64493" lon="5.60744">
        <ele>476</ele>
        <time>2015-04-23T08:36:45Z</time>
      </trkpt>
      <trkpt lat="46.64475" lon="5.60743">
        <ele>475</ele>
        <time>2015-04-23T08:37:00Z</time>
      </trkpt>
      <trkpt lat="46.64466" lon="5.6074">
        <ele>474</ele>
        <time>2015-04-23T08:37:07Z</time>
      </trkpt>
      <trkpt lat="46.64428" lon="5.60736">
        <ele>478</ele>
        <time>2015-04-23T08:37:37Z</time>
      </trkpt>
      <trkpt lat="46.64399" lon="5.60733">
        <ele>481</ele>
        <time>2015-04-23T08:38:07Z</time>
      </trkpt>
      <trkpt lat="46.64385" lon="5.60735">
        <ele>481</ele>
        <time>2015-04-23T08:38:16Z</time>
      </trkpt>
      <trkpt lat="46.64363" lon="5.60733">
        <ele>480</ele>
        <time>2015-04-23T08:38:34Z</time>
      </trkpt>
      <trkpt lat="46.64345" lon="5.60733">
        <ele>480</ele>
        <time>2015-04-23T08:38:51Z</time>
      </trkpt>
      <trkpt lat="46.64307" lon="5.60728">
        <ele>485</ele>
        <time>2015-04-23T08:39:24Z</time>
      </trkpt>
      <trkpt lat="46.64297" lon="5.60727">
        <ele>485</ele>
        <time>2015-04-23T08:39:30Z</time>
      </trkpt>
      <trkpt lat="46.64279" lon="5.60719">
        <ele>486</ele>
        <time>2015-04-23T08:39:44Z</time>
      </trkpt>
      <trkpt lat="46.64269" lon="5.6072">
        <ele>486</ele>
        <time>2015-04-23T08:39:54Z</time>
      </trkpt>
      <trkpt lat="46.64224" lon="5.60726">
        <ele>489</ele>
        <time>2015-04-23T08:40:27Z</time>
      </trkpt>
      <trkpt lat="46.64196" lon="5.6072">
        <ele>489</ele>
        <time>2015-04-23T08:40:53Z</time>
      </trkpt>
      <trkpt lat="46.64185" lon="5.60719">
        <ele>490</ele>
        <time>2015-04-23T08:40:59Z</time>
      </trkpt>
      <trkpt lat="46.64172" lon="5.60723">
        <ele>490</ele>
        <time>2015-04-23T08:41:05Z</time>
      </trkpt>
      <trkpt lat="46.64162" lon="5.60721">
        <ele>490</ele>
        <time>2015-04-23T08:41:19Z</time>
      </trkpt>
      <trkpt lat="46.64152" lon="5.60719">
        <ele>491</ele>
        <time>2015-04-23T08:41:29Z</time>
      </trkpt>
      <trkpt lat="46.64145" lon="5.60718">
        <ele>491</ele>
        <time>2015-04-23T08:41:32Z</time>
      </trkpt>
      <trkpt lat="46.64136" lon="5.6072">
        <ele>491</ele>
        <time>2015-04-23T08:41:42Z</time>
      </trkpt>
      <trkpt lat="46.64088" lon="5.60722">
        <ele>489</ele>
        <time>2015-04-23T08:42:18Z</time>
      </trkpt>
      <trkpt lat="46.64078" lon="5.60721">
        <ele>491</ele>
        <time>2015-04-23T08:42:26Z</time>
      </trkpt>
      <trkpt lat="46.64068" lon="5.60717">
        <ele>491</ele>
        <time>2015-04-23T08:42:35Z</time>
      </trkpt>
      <trkpt lat="46.6403" lon="5.60717">
        <ele>493</ele>
        <time>2015-04-23T08:43:06Z</time>
      </trkpt>
      <trkpt lat="46.63992" lon="5.60718">
        <ele>493</ele>
        <time>2015-04-23T08:43:36Z</time>
      </trkpt>
      <trkpt lat="46.63973" lon="5.60716">
        <ele>494</ele>
        <time>2015-04-23T08:43:50Z</time>
      </trkpt>
      <trkpt lat="46.63964" lon="5.6072">
        <ele>493</ele>
        <time>2015-04-23T08:43:57Z</time>
      </trkpt>
      <trkpt lat="46.63955" lon="5.60721">
        <ele>493</ele>
        <time>2015-04-23T08:44:07Z</time>
      </trkpt>
      <trkpt lat="46.63949" lon="5.60727">
        <ele>492</ele>
        <time>2015-04-23T08:44:38Z</time>
      </trkpt>
      <trkpt lat="46.63943" lon="5.60736">
        <ele>490</ele>
        <time>2015-04-23T08:44:47Z</time>
      </trkpt>
      <trkpt lat="46.63939" lon="5.60734">
        <ele>490</ele>
        <time>2015-04-23T08:44:51Z</time>
      </trkpt>
      <trkpt lat="46.63934" lon="5.60732">
        <ele>490</ele>
        <time>2015-04-23T08:44:54Z</time>
      </trkpt>
      <trkpt lat="46.63933" lon="5.60736">
        <ele>488</ele>
        <time>2015-04-23T08:45:24Z</time>
      </trkpt>
      <trkpt lat="46.63928" lon="5.60736">
        <ele>487</ele>
        <time>2015-04-23T08:45:30Z</time>
      </trkpt>
      <trkpt lat="46.63928" lon="5.60736">
        <ele>487</ele>
        <time>2015-04-23T08:45:50Z</time>
      </trkpt>
      <trkpt lat="46.63924" lon="5.60733">
        <ele>486</ele>
        <time>2015-04-23T08:47:32Z</time>
      </trkpt>
      <trkpt lat="46.63918" lon="5.60736">
        <ele>484</ele>
        <time>2015-04-23T08:47:44Z</time>
      </trkpt>
      <trkpt lat="46.63909" lon="5.60739">
        <ele>483</ele>
        <time>2015-04-23T08:47:53Z</time>
      </trkpt>
      <trkpt lat="46.63901" lon="5.60739">
        <ele>483</ele>
        <time>2015-04-23T08:48:21Z</time>
      </trkpt>
      <trkpt lat="46.63866" lon="5.60759">
        <ele>490</ele>
        <time>2015-04-23T08:48:51Z</time>
      </trkpt>
      <trkpt lat="46.63848" lon="5.6077">
        <ele>490</ele>
        <time>2015-04-23T08:49:05Z</time>
      </trkpt>
      <trkpt lat="46.63841" lon="5.6078">
        <ele>490</ele>
        <time>2015-04-23T08:49:13Z</time>
      </trkpt>
      <trkpt lat="46.63831" lon="5.60784">
        <ele>491</ele>
        <time>2015-04-23T08:49:21Z</time>
      </trkpt>
      <trkpt lat="46.63826" lon="5.60796">
        <ele>492</ele>
        <time>2015-04-23T08:49:28Z</time>
      </trkpt>
      <trkpt lat="46.63802" lon="5.60815">
        <ele>496</ele>
        <time>2015-04-23T08:49:50Z</time>
      </trkpt>
      <trkpt lat="46.63666" lon="5.61223">
        <ele>501</ele>
        <time>2015-04-23T08:52:39Z</time>
      </trkpt>
      <trkpt lat="46.63704" lon="5.61123">
        <ele>508</ele>
        <time>2015-04-23T08:52:44Z</time>
      </trkpt>
      <trkpt lat="46.63705" lon="5.61132">
        <ele>511</ele>
        <time>2015-04-23T08:52:53Z</time>
      </trkpt>
      <trkpt lat="46.63713" lon="5.61148">
        <ele>515</ele>
        <time>2015-04-23T08:53:05Z</time>
      </trkpt>
      <trkpt lat="46.6371" lon="5.61162">
        <ele>519</ele>
        <time>2015-04-23T08:53:13Z</time>
      </trkpt>
      <trkpt lat="46.63706" lon="5.61168">
        <ele>520</ele>
        <time>2015-04-23T08:53:15Z</time>
      </trkpt>
      <trkpt lat="46.63782" lon="5.61184">
        <ele>398</ele>
        <time>2015-04-23T08:54:47Z</time>
      </trkpt>
      <trkpt lat="46.6379" lon="5.61249">
        <ele>443</ele>
        <time>2015-04-23T08:54:50Z</time>
      </trkpt>
      <trkpt lat="46.63781" lon="5.61255">
        <ele>455</ele>
        <time>2015-04-23T08:54:54Z</time>
      </trkpt>
      <trkpt lat="46.63772" lon="5.6127">
        <ele>465</ele>
        <time>2015-04-23T08:55:02Z</time>
      </trkpt>
      <trkpt lat="46.63759" lon="5.61312">
        <ele>487</ele>
        <time>2015-04-23T08:55:20Z</time>
      </trkpt>
      <trkpt lat="46.63754" lon="5.61309">
        <ele>490</ele>
        <time>2015-04-23T08:55:25Z</time>
      </trkpt>
      <trkpt lat="46.63762" lon="5.61317">
        <ele>496</ele>
        <time>2015-04-23T08:57:07Z</time>
      </trkpt>
      <trkpt lat="46.6377" lon="5.61319">
        <ele>495</ele>
        <time>2015-04-23T08:59:37Z</time>
      </trkpt>
      <trkpt lat="46.63778" lon="5.61345">
        <ele>505</ele>
        <time>2015-04-23T09:00:05Z</time>
      </trkpt>
      <trkpt lat="46.638" lon="5.61378">
        <ele>511</ele>
        <time>2015-04-23T09:00:36Z</time>
      </trkpt>
      <trkpt lat="46.63823" lon="5.61412">
        <ele>514</ele>
        <time>2015-04-23T09:01:07Z</time>
      </trkpt>
      <trkpt lat="46.63833" lon="5.61427">
        <ele>514</ele>
        <time>2015-04-23T09:01:18Z</time>
      </trkpt>
      <trkpt lat="46.63836" lon="5.61434">
        <ele>515</ele>
        <time>2015-04-23T09:01:26Z</time>
      </trkpt>
      <trkpt lat="46.63844" lon="5.61447">
        <ele>515</ele>
        <time>2015-04-23T09:01:36Z</time>
      </trkpt>
      <trkpt lat="46.63879" lon="5.61488">
        <ele>515</ele>
        <time>2015-04-23T09:01:54Z</time>
      </trkpt>
      <trkpt lat="46.63882" lon="5.61483">
        <ele>514</ele>
        <time>2015-04-23T09:02:02Z</time>
      </trkpt>
      <trkpt lat="46.63893" lon="5.61485">
        <ele>513</ele>
        <time>2015-04-23T09:02:15Z</time>
      </trkpt>
      <trkpt lat="46.63934" lon="5.61522">
        <ele>515</ele>
        <time>2015-04-23T09:04:07Z</time>
      </trkpt>
      <trkpt lat="46.63936" lon="5.6153">
        <ele>515</ele>
        <time>2015-04-23T09:04:23Z</time>
      </trkpt>
      <trkpt lat="46.63941" lon="5.61528">
        <ele>516</ele>
        <time>2015-04-23T09:04:51Z</time>
      </trkpt>
      <trkpt lat="46.63946" lon="5.61531">
        <ele>515</ele>
        <time>2015-04-23T09:04:55Z</time>
      </trkpt>
      <trkpt lat="46.63951" lon="5.61533">
        <ele>516</ele>
        <time>2015-04-23T09:05:00Z</time>
      </trkpt>
      <trkpt lat="46.63979" lon="5.61554">
        <ele>512</ele>
        <time>2015-04-23T09:05:29Z</time>
      </trkpt>
      <trkpt lat="46.63991" lon="5.61565">
        <ele>513</ele>
        <time>2015-04-23T09:05:40Z</time>
      </trkpt>
      <trkpt lat="46.64009" lon="5.61576">
        <ele>514</ele>
        <time>2015-04-23T09:05:57Z</time>
      </trkpt>
      <trkpt lat="46.64042" lon="5.61605">
        <ele>518</ele>
        <time>2015-04-23T09:06:29Z</time>
      </trkpt>
      <trkpt lat="46.64058" lon="5.61637">
        <ele>521</ele>
        <time>2015-04-23T09:06:59Z</time>
      </trkpt>
      <trkpt lat="46.64068" lon="5.61642">
        <ele>521</ele>
        <time>2015-04-23T09:07:16Z</time>
      </trkpt>
      <trkpt lat="46.6408" lon="5.61659">
        <ele>525</ele>
        <time>2015-04-23T09:07:48Z</time>
      </trkpt>
      <trkpt lat="46.64079" lon="5.6165">
        <ele>530</ele>
        <time>2015-04-23T09:09:08Z</time>
      </trkpt>
      <trkpt lat="46.64076" lon="5.61645">
        <ele>530</ele>
        <time>2015-04-23T09:09:15Z</time>
      </trkpt>
      <trkpt lat="46.64073" lon="5.61641">
        <ele>529</ele>
        <time>2015-04-23T09:09:20Z</time>
      </trkpt>
      <trkpt lat="46.64074" lon="5.61644">
        <ele>522</ele>
        <time>2015-04-23T09:10:01Z</time>
      </trkpt>
      <trkpt lat="46.64081" lon="5.61649">
        <ele>522</ele>
        <time>2015-04-23T09:10:19Z</time>
      </trkpt>
      <trkpt lat="46.64083" lon="5.61665">
        <ele>525</ele>
        <time>2015-04-23T09:10:49Z</time>
      </trkpt>
      <trkpt lat="46.64088" lon="5.61677">
        <ele>529</ele>
        <time>2015-04-23T09:10:57Z</time>
      </trkpt>
      <trkpt lat="46.64096" lon="5.61683">
        <ele>531</ele>
        <time>2015-04-23T09:11:07Z</time>
      </trkpt>
      <trkpt lat="46.64102" lon="5.61693">
        <ele>531</ele>
        <time>2015-04-23T09:11:17Z</time>
      </trkpt>
      <trkpt lat="46.64119" lon="5.61706">
        <ele>531</ele>
        <time>2015-04-23T09:11:36Z</time>
      </trkpt>
      <trkpt lat="46.64129" lon="5.61731">
        <ele>533</ele>
        <time>2015-04-23T09:11:52Z</time>
      </trkpt>
      <trkpt lat="46.64134" lon="5.61751">
        <ele>531</ele>
        <time>2015-04-23T09:12:14Z</time>
      </trkpt>
      <trkpt lat="46.64136" lon="5.61757">
        <ele>531</ele>
        <time>2015-04-23T09:12:18Z</time>
      </trkpt>
      <trkpt lat="46.6414" lon="5.61762">
        <ele>532</ele>
        <time>2015-04-23T09:12:22Z</time>
      </trkpt>
      <trkpt lat="46.64141" lon="5.61775">
        <ele>532</ele>
        <time>2015-04-23T09:12:28Z</time>
      </trkpt>
      <trkpt lat="46.64144" lon="5.61781">
        <ele>533</ele>
        <time>2015-04-23T09:12:32Z</time>
      </trkpt>
      <trkpt lat="46.64153" lon="5.61793">
        <ele>533</ele>
        <time>2015-04-23T09:12:41Z</time>
      </trkpt>
      <trkpt lat="46.64158" lon="5.61804">
        <ele>533</ele>
        <time>2015-04-23T09:12:51Z</time>
      </trkpt>
      <trkpt lat="46.64158" lon="5.61807">
        <ele>532</ele>
        <time>2015-04-23T09:13:01Z</time>
      </trkpt>
      <trkpt lat="46.64169" lon="5.61831">
        <ele>533</ele>
        <time>2015-04-23T09:13:25Z</time>
      </trkpt>
      <trkpt lat="46.6417" lon="5.61844">
        <ele>536</ele>
        <time>2015-04-23T09:13:47Z</time>
      </trkpt>
      <trkpt lat="46.64165" lon="5.61842">
        <ele>535</ele>
        <time>2015-04-23T09:13:54Z</time>
      </trkpt>
      <trkpt lat="46.64164" lon="5.6184">
        <ele>535</ele>
        <time>2015-04-23T09:14:00Z</time>
      </trkpt>
      <trkpt lat="46.64165" lon="5.61842">
        <ele>533</ele>
        <time>2015-04-23T09:14:39Z</time>
      </trkpt>
      <trkpt lat="46.6417" lon="5.61842">
        <ele>534</ele>
        <time>2015-04-23T09:14:46Z</time>
      </trkpt>
      <trkpt lat="46.64176" lon="5.61838">
        <ele>536</ele>
        <time>2015-04-23T09:15:02Z</time>
      </trkpt>
      <trkpt lat="46.64188" lon="5.61826">
        <ele>533</ele>
        <time>2015-04-23T09:15:17Z</time>
      </trkpt>
      <trkpt lat="46.64192" lon="5.61813">
        <ele>530</ele>
        <time>2015-04-23T09:15:28Z</time>
      </trkpt>
      <trkpt lat="46.64195" lon="5.61806">
        <ele>530</ele>
        <time>2015-04-23T09:15:32Z</time>
      </trkpt>
      <trkpt lat="46.64198" lon="5.61801">
        <ele>530</ele>
        <time>2015-04-23T09:15:37Z</time>
      </trkpt>
      <trkpt lat="46.64199" lon="5.61797">
        <ele>530</ele>
        <time>2015-04-23T09:15:39Z</time>
      </trkpt>
      <trkpt lat="46.64219" lon="5.61749">
        <ele>529</ele>
        <time>2015-04-23T09:16:12Z</time>
      </trkpt>
      <trkpt lat="46.64241" lon="5.61699">
        <ele>531</ele>
        <time>2015-04-23T09:16:42Z</time>
      </trkpt>
      <trkpt lat="46.64247" lon="5.61689">
        <ele>531</ele>
        <time>2015-04-23T09:16:49Z</time>
      </trkpt>
      <trkpt lat="46.64253" lon="5.61677">
        <ele>531</ele>
        <time>2015-04-23T09:16:56Z</time>
      </trkpt>
      <trkpt lat="46.64278" lon="5.61617">
        <ele>531</ele>
        <time>2015-04-23T09:17:35Z</time>
      </trkpt>
      <trkpt lat="46.64284" lon="5.61605">
        <ele>532</ele>
        <time>2015-04-23T09:17:44Z</time>
      </trkpt>
      <trkpt lat="46.64287" lon="5.61593">
        <ele>532</ele>
        <time>2015-04-23T09:17:51Z</time>
      </trkpt>
      <trkpt lat="46.6429" lon="5.6158">
        <ele>529</ele>
        <time>2015-04-23T09:18:00Z</time>
      </trkpt>
      <trkpt lat="46.643" lon="5.61555">
        <ele>529</ele>
        <time>2015-04-23T09:18:16Z</time>
      </trkpt>
      <trkpt lat="46.64309" lon="5.61513">
        <ele>531</ele>
        <time>2015-04-23T09:18:40Z</time>
      </trkpt>
      <trkpt lat="46.64307" lon="5.61499">
        <ele>532</ele>
        <time>2015-04-23T09:18:49Z</time>
      </trkpt>
      <trkpt lat="46.64304" lon="5.61488">
        <ele>533</ele>
        <time>2015-04-23T09:19:23Z</time>
      </trkpt>
      <trkpt lat="46.64297" lon="5.61501">
        <ele>531</ele>
        <time>2015-04-23T09:19:55Z</time>
      </trkpt>
      <trkpt lat="46.64287" lon="5.61495">
        <ele>528</ele>
        <time>2015-04-23T09:20:03Z</time>
      </trkpt>
      <trkpt lat="46.64256" lon="5.61463">
        <ele>521</ele>
        <time>2015-04-23T09:20:35Z</time>
      </trkpt>
      <trkpt lat="46.64248" lon="5.61455">
        <ele>521</ele>
        <time>2015-04-23T09:20:43Z</time>
      </trkpt>
      <trkpt lat="46.64224" lon="5.61435">
        <ele>525</ele>
        <time>2015-04-23T09:21:07Z</time>
      </trkpt>
      <trkpt lat="46.64198" lon="5.61422">
        <ele>525</ele>
        <time>2015-04-23T09:21:29Z</time>
      </trkpt>
      <trkpt lat="46.6418" lon="5.61422">
        <ele>526</ele>
        <time>2015-04-23T09:21:42Z</time>
      </trkpt>
      <trkpt lat="46.64141" lon="5.61415">
        <ele>528</ele>
        <time>2015-04-23T09:22:12Z</time>
      </trkpt>
      <trkpt lat="46.64129" lon="5.61405">
        <ele>527</ele>
        <time>2015-04-23T09:22:22Z</time>
      </trkpt>
      <trkpt lat="46.6412" lon="5.61402">
        <ele>528</ele>
        <time>2015-04-23T09:22:30Z</time>
      </trkpt>
      <trkpt lat="46.64085" lon="5.61378">
        <ele>524</ele>
        <time>2015-04-23T09:23:08Z</time>
      </trkpt>
      <trkpt lat="46.6406" lon="5.61359">
        <ele>525</ele>
        <time>2015-04-23T09:23:29Z</time>
      </trkpt>
      <trkpt lat="46.64024" lon="5.61337">
        <ele>529</ele>
        <time>2015-04-23T09:23:59Z</time>
      </trkpt>
      <trkpt lat="46.64015" lon="5.61333">
        <ele>531</ele>
        <time>2015-04-23T09:24:07Z</time>
      </trkpt>
      <trkpt lat="46.64005" lon="5.61334">
        <ele>532</ele>
        <time>2015-04-23T09:24:18Z</time>
      </trkpt>
      <trkpt lat="46.63987" lon="5.61335">
        <ele>532</ele>
        <time>2015-04-23T09:24:34Z</time>
      </trkpt>
      <trkpt lat="46.63948" lon="5.61321">
        <ele>535</ele>
        <time>2015-04-23T09:25:03Z</time>
      </trkpt>
      <trkpt lat="46.63939" lon="5.61319">
        <ele>534</ele>
        <time>2015-04-23T09:25:11Z</time>
      </trkpt>
      <trkpt lat="46.63929" lon="5.61317">
        <ele>533</ele>
        <time>2015-04-23T09:25:19Z</time>
      </trkpt>
      <trkpt lat="46.6391" lon="5.6131">
        <ele>532</ele>
        <time>2015-04-23T09:25:32Z</time>
      </trkpt>
      <trkpt lat="46.63891" lon="5.61314">
        <ele>532</ele>
        <time>2015-04-23T09:25:50Z</time>
      </trkpt>
      <trkpt lat="46.63874" lon="5.61303">
        <ele>533</ele>
        <time>2015-04-23T09:26:04Z</time>
      </trkpt>
      <trkpt lat="46.63864" lon="5.61304">
        <ele>533</ele>
        <time>2015-04-23T09:26:14Z</time>
      </trkpt>
      <trkpt lat="46.63854" lon="5.61304">
        <ele>532</ele>
        <time>2015-04-23T09:26:22Z</time>
      </trkpt>
      <trkpt lat="46.63827" lon="5.61301">
        <ele>532</ele>
        <time>2015-04-23T09:26:44Z</time>
      </trkpt>
      <trkpt lat="46.63808" lon="5.61298">
        <ele>531</ele>
        <time>2015-04-23T09:27:00Z</time>
      </trkpt>
      <trkpt lat="46.63771" lon="5.61287">
        <ele>531</ele>
        <time>2015-04-23T09:27:35Z</time>
      </trkpt>
      <trkpt lat="46.63752" lon="5.61258">
        <ele>536</ele>
        <time>2015-04-23T09:28:00Z</time>
      </trkpt>
      <trkpt lat="46.63743" lon="5.6126">
        <ele>537</ele>
        <time>2015-04-23T09:28:07Z</time>
      </trkpt>
      <trkpt lat="46.63725" lon="5.61269">
        <ele>537</ele>
        <time>2015-04-23T09:28:25Z</time>
      </trkpt>
      <trkpt lat="46.63721" lon="5.61271">
        <ele>540</ele>
        <time>2015-04-23T09:30:59Z</time>
      </trkpt>
      <trkpt lat="46.63721" lon="5.61272">
        <ele>540</ele>
        <time>2015-04-23T09:33:23Z</time>
      </trkpt>
      <trkpt lat="46.63749" lon="5.61247">
        <ele>535</ele>
        <time>2015-04-23T09:39:10Z</time>
      </trkpt>
      <trkpt lat="46.63748" lon="5.6124">
        <ele>534</ele>
        <time>2015-04-23T09:39:16Z</time>
      </trkpt>
      <trkpt lat="46.63745" lon="5.61233">
        <ele>534</ele>
        <time>2015-04-23T09:39:20Z</time>
      </trkpt>
      <trkpt lat="46.63743" lon="5.61226">
        <ele>534</ele>
        <time>2015-04-23T09:39:25Z</time>
      </trkpt>
      <trkpt lat="46.63744" lon="5.61212">
        <ele>534</ele>
        <time>2015-04-23T09:39:35Z</time>
      </trkpt>
      <trkpt lat="46.63749" lon="5.61158">
        <ele>537</ele>
        <time>2015-04-23T09:40:12Z</time>
      </trkpt>
      <trkpt lat="46.63744" lon="5.61131">
        <ele>540</ele>
        <time>2015-04-23T09:40:31Z</time>
      </trkpt>
      <trkpt lat="46.63745" lon="5.61103">
        <ele>540</ele>
        <time>2015-04-23T09:40:49Z</time>
      </trkpt>
      <trkpt lat="46.63739" lon="5.61092">
        <ele>539</ele>
        <time>2015-04-23T09:40:57Z</time>
      </trkpt>
      <trkpt lat="46.63733" lon="5.6108">
        <ele>539</ele>
        <time>2015-04-23T09:41:03Z</time>
      </trkpt>
      <trkpt lat="46.6373" lon="5.61054">
        <ele>538</ele>
        <time>2015-04-23T09:41:17Z</time>
      </trkpt>
      <trkpt lat="46.63711" lon="5.61008">
        <ele>538</ele>
        <time>2015-04-23T09:41:46Z</time>
      </trkpt>
      <trkpt lat="46.63707" lon="5.60995">
        <ele>536</ele>
        <time>2015-04-23T09:42:01Z</time>
      </trkpt>
      <trkpt lat="46.63704" lon="5.60982">
        <ele>536</ele>
        <time>2015-04-23T09:42:07Z</time>
      </trkpt>
      <trkpt lat="46.63706" lon="5.60969">
        <ele>537</ele>
        <time>2015-04-23T09:42:12Z</time>
      </trkpt>
      <trkpt lat="46.63719" lon="5.6095">
        <ele>538</ele>
        <time>2015-04-23T09:42:24Z</time>
      </trkpt>
      <trkpt lat="46.63726" lon="5.60941">
        <ele>538</ele>
        <time>2015-04-23T09:42:34Z</time>
      </trkpt>
      <trkpt lat="46.6373" lon="5.60928">
        <ele>538</ele>
        <time>2015-04-23T09:42:44Z</time>
      </trkpt>
      <trkpt lat="46.63739" lon="5.6092">
        <ele>539</ele>
        <time>2015-04-23T09:42:52Z</time>
      </trkpt>
      <trkpt lat="46.63748" lon="5.6092">
        <ele>540</ele>
        <time>2015-04-23T09:42:59Z</time>
      </trkpt>
      <trkpt lat="46.63765" lon="5.60905">
        <ele>539</ele>
        <time>2015-04-23T09:43:17Z</time>
      </trkpt>
      <trkpt lat="46.63781" lon="5.60889">
        <ele>538</ele>
        <time>2015-04-23T09:43:38Z</time>
      </trkpt>
      <trkpt lat="46.63791" lon="5.60885">
        <ele>538</ele>
        <time>2015-04-23T09:43:45Z</time>
      </trkpt>
      <trkpt lat="46.638" lon="5.60883">
        <ele>539</ele>
        <time>2015-04-23T09:43:52Z</time>
      </trkpt>
      <trkpt lat="46.63837" lon="5.60871">
        <ele>539</ele>
        <time>2015-04-23T09:44:24Z</time>
      </trkpt>
      <trkpt lat="46.63845" lon="5.60864">
        <ele>540</ele>
        <time>2015-04-23T09:44:32Z</time>
      </trkpt>
      <trkpt lat="46.63872" lon="5.60849">
        <ele>544</ele>
        <time>2015-04-23T09:44:57Z</time>
      </trkpt>
      <trkpt lat="46.63881" lon="5.60846">
        <ele>544</ele>
        <time>2015-04-23T09:45:04Z</time>
      </trkpt>
      <trkpt lat="46.6392" lon="5.60844">
        <ele>544</ele>
        <time>2015-04-23T09:45:36Z</time>
      </trkpt>
      <trkpt lat="46.63944" lon="5.60839">
        <ele>544</ele>
        <time>2015-04-23T09:45:54Z</time>
      </trkpt>
      <trkpt lat="46.63953" lon="5.60837">
        <ele>543</ele>
        <time>2015-04-23T09:46:04Z</time>
      </trkpt>
      <trkpt lat="46.63962" lon="5.60838">
        <ele>543</ele>
        <time>2015-04-23T09:46:13Z</time>
      </trkpt>
      <trkpt lat="46.63972" lon="5.60835">
        <ele>544</ele>
        <time>2015-04-23T09:46:23Z</time>
      </trkpt>
      <trkpt lat="46.63982" lon="5.60836">
        <ele>544</ele>
        <time>2015-04-23T09:46:32Z</time>
      </trkpt>
      <trkpt lat="46.64" lon="5.60831">
        <ele>543</ele>
        <time>2015-04-23T09:46:48Z</time>
      </trkpt>
      <trkpt lat="46.64018" lon="5.6082">
        <ele>542</ele>
        <time>2015-04-23T09:47:05Z</time>
      </trkpt>
      <trkpt lat="46.64046" lon="5.60812">
        <ele>539</ele>
        <time>2015-04-23T09:47:31Z</time>
      </trkpt>
      <trkpt lat="46.64055" lon="5.60815">
        <ele>539</ele>
        <time>2015-04-23T09:47:41Z</time>
      </trkpt>
      <trkpt lat="46.64065" lon="5.60819">
        <ele>538</ele>
        <time>2015-04-23T09:47:49Z</time>
      </trkpt>
      <trkpt lat="46.64095" lon="5.60819">
        <ele>539</ele>
        <time>2015-04-23T09:48:12Z</time>
      </trkpt>
      <trkpt lat="46.64143" lon="5.60821">
        <ele>538</ele>
        <time>2015-04-23T09:48:47Z</time>
      </trkpt>
      <trkpt lat="46.64161" lon="5.60815">
        <ele>538</ele>
        <time>2015-04-23T09:49:04Z</time>
      </trkpt>
      <trkpt lat="46.64179" lon="5.60821">
        <ele>538</ele>
        <time>2015-04-23T09:49:17Z</time>
      </trkpt>
      <trkpt lat="46.64226" lon="5.60818">
        <ele>535</ele>
        <time>2015-04-23T09:49:53Z</time>
      </trkpt>
      <trkpt lat="46.64235" lon="5.60822">
        <ele>534</ele>
        <time>2015-04-23T09:50:00Z</time>
      </trkpt>
      <trkpt lat="46.64245" lon="5.60818">
        <ele>534</ele>
        <time>2015-04-23T09:50:07Z</time>
      </trkpt>
      <trkpt lat="46.64273" lon="5.60815">
        <ele>532</ele>
        <time>2015-04-23T09:50:32Z</time>
      </trkpt>
      <trkpt lat="46.64281" lon="5.60821">
        <ele>532</ele>
        <time>2015-04-23T09:50:41Z</time>
      </trkpt>
      <trkpt lat="46.64291" lon="5.60816">
        <ele>532</ele>
        <time>2015-04-23T09:50:48Z</time>
      </trkpt>
      <trkpt lat="46.64337" lon="5.60817">
        <ele>526</ele>
        <time>2015-04-23T09:51:26Z</time>
      </trkpt>
      <trkpt lat="46.64347" lon="5.60817">
        <ele>525</ele>
        <time>2015-04-23T09:51:34Z</time>
      </trkpt>
      <trkpt lat="46.64356" lon="5.60814">
        <ele>524</ele>
        <time>2015-04-23T09:51:43Z</time>
      </trkpt>
      <trkpt lat="46.64365" lon="5.60816">
        <ele>526</ele>
        <time>2015-04-23T09:51:53Z</time>
      </trkpt>
      <trkpt lat="46.64393" lon="5.60815">
        <ele>529</ele>
        <time>2015-04-23T09:52:19Z</time>
      </trkpt>
      <trkpt lat="46.64403" lon="5.60814">
        <ele>529</ele>
        <time>2015-04-23T09:52:25Z</time>
      </trkpt>
      <trkpt lat="46.64421" lon="5.60809">
        <ele>528</ele>
        <time>2015-04-23T09:52:44Z</time>
      </trkpt>
      <trkpt lat="46.64432" lon="5.60805">
        <ele>528</ele>
        <time>2015-04-23T09:52:52Z</time>
      </trkpt>
      <trkpt lat="46.64441" lon="5.60806">
        <ele>528</ele>
        <time>2015-04-23T09:53:00Z</time>
      </trkpt>
      <trkpt lat="46.64451" lon="5.60804">
        <ele>528</ele>
        <time>2015-04-23T09:53:07Z</time>
      </trkpt>
      <trkpt lat="46.64491" lon="5.60813">
        <ele>525</ele>
        <time>2015-04-23T09:53:41Z</time>
      </trkpt>
      <trkpt lat="46.64515" lon="5.60833">
        <ele>524</ele>
        <time>2015-04-23T09:54:09Z</time>
      </trkpt>
      <trkpt lat="46.64524" lon="5.60833">
        <ele>524</ele>
        <time>2015-04-23T09:54:16Z</time>
      </trkpt>
      <trkpt lat="46.64561" lon="5.6085">
        <ele>526</ele>
        <time>2015-04-23T09:54:46Z</time>
      </trkpt>
      <trkpt lat="46.64569" lon="5.60858">
        <ele>526</ele>
        <time>2015-04-23T09:54:54Z</time>
      </trkpt>
      <trkpt lat="46.64576" lon="5.60867">
        <ele>525</ele>
        <time>2015-04-23T09:55:02Z</time>
      </trkpt>
      <trkpt lat="46.64598" lon="5.60885">
        <ele>526</ele>
        <time>2015-04-23T09:55:22Z</time>
      </trkpt>
      <trkpt lat="46.64606" lon="5.60893">
        <ele>526</ele>
        <time>2015-04-23T09:55:30Z</time>
      </trkpt>
      <trkpt lat="46.64608" lon="5.60905">
        <ele>525</ele>
        <time>2015-04-23T09:55:37Z</time>
      </trkpt>
      <trkpt lat="46.64606" lon="5.60919">
        <ele>525</ele>
        <time>2015-04-23T09:55:42Z</time>
      </trkpt>
      <trkpt lat="46.64604" lon="5.60932">
        <ele>524</ele>
        <time>2015-04-23T09:55:52Z</time>
      </trkpt>
      <trkpt lat="46.64589" lon="5.6095">
        <ele>521</ele>
        <time>2015-04-23T09:56:19Z</time>
      </trkpt>
      <trkpt lat="46.6458" lon="5.60955">
        <ele>520</ele>
        <time>2015-04-23T09:56:27Z</time>
      </trkpt>
      <trkpt lat="46.64571" lon="5.60961">
        <ele>521</ele>
        <time>2015-04-23T09:56:32Z</time>
      </trkpt>
      <trkpt lat="46.64565" lon="5.60971">
        <ele>523</ele>
        <time>2015-04-23T09:56:47Z</time>
      </trkpt>
      <trkpt lat="46.64558" lon="5.60997">
        <ele>526</ele>
        <time>2015-04-23T09:57:06Z</time>
      </trkpt>
      <trkpt lat="46.64545" lon="5.6102">
        <ele>527</ele>
        <time>2015-04-23T09:57:20Z</time>
      </trkpt>
      <trkpt lat="46.64544" lon="5.61033">
        <ele>529</ele>
        <time>2015-04-23T09:57:26Z</time>
      </trkpt>
      <trkpt lat="46.64538" lon="5.61085">
        <ele>532</ele>
        <time>2015-04-23T09:57:57Z</time>
      </trkpt>
      <trkpt lat="46.64544" lon="5.61097">
        <ele>533</ele>
        <time>2015-04-23T09:58:05Z</time>
      </trkpt>
      <trkpt lat="46.64553" lon="5.61101">
        <ele>534</ele>
        <time>2015-04-23T09:58:14Z</time>
      </trkpt>
      <trkpt lat="46.64561" lon="5.61093">
        <ele>533</ele>
        <time>2015-04-23T09:58:25Z</time>
      </trkpt>
      <trkpt lat="46.6458" lon="5.6109">
        <ele>530</ele>
        <time>2015-04-23T09:58:45Z</time>
      </trkpt>
      <trkpt lat="46.64599" lon="5.61084">
        <ele>529</ele>
        <time>2015-04-23T09:58:57Z</time>
      </trkpt>
      <trkpt lat="46.64634" lon="5.61056">
        <ele>532</ele>
        <time>2015-04-23T09:59:23Z</time>
      </trkpt>
      <trkpt lat="46.64648" lon="5.61037">
        <ele>530</ele>
        <time>2015-04-23T09:59:40Z</time>
      </trkpt>
      <trkpt lat="46.64657" lon="5.61034">
        <ele>529</ele>
        <time>2015-04-23T09:59:48Z</time>
      </trkpt>
      <trkpt lat="46.64694" lon="5.61018">
        <ele>530</ele>
        <time>2015-04-23T10:00:30Z</time>
      </trkpt>
      <trkpt lat="46.64703" lon="5.61012">
        <ele>530</ele>
        <time>2015-04-23T10:00:39Z</time>
      </trkpt>
      <trkpt lat="46.6471" lon="5.61009">
        <ele>529</ele>
        <time>2015-04-23T10:00:42Z</time>
      </trkpt>
      <trkpt lat="46.6473" lon="5.61015">
        <ele>529</ele>
        <time>2015-04-23T10:00:52Z</time>
      </trkpt>
      <trkpt lat="46.6474" lon="5.61011">
        <ele>529</ele>
        <time>2015-04-23T10:00:59Z</time>
      </trkpt>
      <trkpt lat="46.64787" lon="5.60961">
        <ele>529</ele>
        <time>2015-04-23T10:01:34Z</time>
      </trkpt>
      <trkpt lat="46.64801" lon="5.60943">
        <ele>528</ele>
        <time>2015-04-23T10:01:50Z</time>
      </trkpt>
      <trkpt lat="46.64809" lon="5.60935">
        <ele>527</ele>
        <time>2015-04-23T10:01:58Z</time>
      </trkpt>
      <trkpt lat="46.64816" lon="5.60927">
        <ele>527</ele>
        <time>2015-04-23T10:02:05Z</time>
      </trkpt>
      <trkpt lat="46.64824" lon="5.60918">
        <ele>527</ele>
        <time>2015-04-23T10:02:12Z</time>
      </trkpt>
      <trkpt lat="46.64832" lon="5.60911">
        <ele>526</ele>
        <time>2015-04-23T10:02:19Z</time>
      </trkpt>
      <trkpt lat="46.64842" lon="5.60905">
        <ele>526</ele>
        <time>2015-04-23T10:02:26Z</time>
      </trkpt>
      <trkpt lat="46.6485" lon="5.60899">
        <ele>526</ele>
        <time>2015-04-23T10:02:33Z</time>
      </trkpt>
      <trkpt lat="46.64858" lon="5.60891">
        <ele>526</ele>
        <time>2015-04-23T10:02:40Z</time>
      </trkpt>
      <trkpt lat="46.64899" lon="5.60859">
        <ele>525</ele>
        <time>2015-04-23T10:03:16Z</time>
      </trkpt>
      <trkpt lat="46.64907" lon="5.60851">
        <ele>525</ele>
        <time>2015-04-23T10:03:25Z</time>
      </trkpt>
      <trkpt lat="46.64916" lon="5.60845">
        <ele>526</ele>
        <time>2015-04-23T10:03:33Z</time>
      </trkpt>
      <trkpt lat="46.64924" lon="5.60835">
        <ele>525</ele>
        <time>2015-04-23T10:04:08Z</time>
      </trkpt>
      <trkpt lat="46.64932" lon="5.60829">
        <ele>524</ele>
        <time>2015-04-23T10:04:18Z</time>
      </trkpt>
      <trkpt lat="46.64975" lon="5.60797">
        <ele>523</ele>
        <time>2015-04-23T10:04:54Z</time>
      </trkpt>
      <trkpt lat="46.64982" lon="5.60787">
        <ele>523</ele>
        <time>2015-04-23T10:05:01Z</time>
      </trkpt>
      <trkpt lat="46.64976" lon="5.6079">
        <ele>522</ele>
        <time>2015-04-23T10:06:07Z</time>
      </trkpt>
      <trkpt lat="46.64971" lon="5.6079">
        <ele>522</ele>
        <time>2015-04-23T10:06:24Z</time>
      </trkpt>
      <trkpt lat="46.64986" lon="5.60797">
        <ele>521</ele>
        <time>2015-04-23T10:07:01Z</time>
      </trkpt>
      <trkpt lat="46.64992" lon="5.60807">
        <ele>520</ele>
        <time>2015-04-23T10:07:09Z</time>
      </trkpt>
      <trkpt lat="46.65" lon="5.60811">
        <ele>516</ele>
        <time>2015-04-23T10:07:17Z</time>
      </trkpt>
      <trkpt lat="46.65008" lon="5.60803">
        <ele>516</ele>
        <time>2015-04-23T10:07:24Z</time>
      </trkpt>
      <trkpt lat="46.65038" lon="5.6077">
        <ele>520</ele>
        <time>2015-04-23T10:07:54Z</time>
      </trkpt>
      <trkpt lat="46.65049" lon="5.6077">
        <ele>521</ele>
        <time>2015-04-23T10:08:06Z</time>
      </trkpt>
      <trkpt lat="46.65059" lon="5.60774">
        <ele>521</ele>
        <time>2015-04-23T10:08:12Z</time>
      </trkpt>
      <trkpt lat="46.65078" lon="5.60763">
        <ele>523</ele>
        <time>2015-04-23T10:08:25Z</time>
      </trkpt>
      <trkpt lat="46.65107" lon="5.60751">
        <ele>523</ele>
        <time>2015-04-23T10:08:44Z</time>
      </trkpt>
      <trkpt lat="46.65115" lon="5.60755">
        <ele>523</ele>
        <time>2015-04-23T10:08:53Z</time>
      </trkpt>
      <trkpt lat="46.65123" lon="5.60747">
        <ele>523</ele>
        <time>2015-04-23T10:08:59Z</time>
      </trkpt>
      <trkpt lat="46.65131" lon="5.60738">
        <ele>522</ele>
        <time>2015-04-23T10:09:06Z</time>
      </trkpt>
      <trkpt lat="46.65151" lon="5.60739">
        <ele>520</ele>
        <time>2015-04-23T10:09:27Z</time>
      </trkpt>
      <trkpt lat="46.6516" lon="5.60733">
        <ele>519</ele>
        <time>2015-04-23T10:09:32Z</time>
      </trkpt>
      <trkpt lat="46.65168" lon="5.60708">
        <ele>518</ele>
        <time>2015-04-23T10:09:46Z</time>
      </trkpt>
      <trkpt lat="46.65185" lon="5.60695">
        <ele>518</ele>
        <time>2015-04-23T10:09:56Z</time>
      </trkpt>
      <trkpt lat="46.65223" lon="5.60687">
        <ele>515</ele>
        <time>2015-04-23T10:10:32Z</time>
      </trkpt>
      <trkpt lat="46.65233" lon="5.60684">
        <ele>515</ele>
        <time>2015-04-23T10:10:40Z</time>
      </trkpt>
      <trkpt lat="46.65235" lon="5.60675">
        <ele>516</ele>
        <time>2015-04-23T10:13:43Z</time>
      </trkpt>
      <trkpt lat="46.65239" lon="5.60675">
        <ele>519</ele>
        <time>2015-04-23T10:17:02Z</time>
      </trkpt>
      <trkpt lat="46.65241" lon="5.60686">
        <ele>519</ele>
        <time>2015-04-23T10:18:21Z</time>
      </trkpt>
      <trkpt lat="46.65232" lon="5.60687">
        <ele>519</ele>
        <time>2015-04-23T10:18:41Z</time>
      </trkpt>
      <trkpt lat="46.65232" lon="5.60679">
        <ele>518</ele>
        <time>2015-04-23T10:22:02Z</time>
      </trkpt>
      <trkpt lat="46.6524" lon="5.60673">
        <ele>519</ele>
        <time>2015-04-23T10:23:58Z</time>
      </trkpt>
      <trkpt lat="46.65233" lon="5.60679">
        <ele>520</ele>
        <time>2015-04-23T10:26:18Z</time>
      </trkpt>
      <trkpt lat="46.65237" lon="5.60678">
        <ele>520</ele>
        <time>2015-04-23T10:27:12Z</time>
      </trkpt>
      <trkpt lat="46.65238" lon="5.60674">
        <ele>521</ele>
        <time>2015-04-23T10:35:17Z</time>
      </trkpt>
      <trkpt lat="46.65225" lon="5.60669">
        <ele>523</ele>
        <time>2015-04-23T10:49:19Z</time>
      </trkpt>
      <trkpt lat="46.65221" lon="5.60708">
        <ele>519</ele>
        <time>2015-04-23T10:54:20Z</time>
      </trkpt>
      <trkpt lat="46.65218" lon="5.60722">
        <ele>519</ele>
        <time>2015-04-23T10:54:26Z</time>
      </trkpt>
      <trkpt lat="46.65216" lon="5.60751">
        <ele>519</ele>
        <time>2015-04-23T10:54:51Z</time>
      </trkpt>
      <trkpt lat="46.65224" lon="5.60759">
        <ele>519</ele>
        <time>2015-04-23T10:55:02Z</time>
      </trkpt>
      <trkpt lat="46.65251" lon="5.60775">
        <ele>517</ele>
        <time>2015-04-23T10:55:26Z</time>
      </trkpt>
      <trkpt lat="46.65257" lon="5.60786">
        <ele>516</ele>
        <time>2015-04-23T10:55:35Z</time>
      </trkpt>
      <trkpt lat="46.65273" lon="5.60805">
        <ele>517</ele>
        <time>2015-04-23T10:55:51Z</time>
      </trkpt>
      <trkpt lat="46.65279" lon="5.60831">
        <ele>517</ele>
        <time>2015-04-23T10:56:06Z</time>
      </trkpt>
      <trkpt lat="46.65292" lon="5.60869">
        <ele>513</ele>
        <time>2015-04-23T10:56:38Z</time>
      </trkpt>
      <trkpt lat="46.6533" lon="5.60918">
        <ele>507</ele>
        <time>2015-04-23T10:57:13Z</time>
      </trkpt>
      <trkpt lat="46.65336" lon="5.6093">
        <ele>505</ele>
        <time>2015-04-23T10:57:22Z</time>
      </trkpt>
      <trkpt lat="46.65343" lon="5.60939">
        <ele>505</ele>
        <time>2015-04-23T10:57:28Z</time>
      </trkpt>
      <trkpt lat="46.65343" lon="5.60953">
        <ele>505</ele>
        <time>2015-04-23T10:57:41Z</time>
      </trkpt>
      <trkpt lat="46.65347" lon="5.60966">
        <ele>505</ele>
        <time>2015-04-23T10:57:48Z</time>
      </trkpt>
      <trkpt lat="46.65351" lon="5.60979">
        <ele>503</ele>
        <time>2015-04-23T10:57:55Z</time>
      </trkpt>
      <trkpt lat="46.65349" lon="5.60993">
        <ele>502</ele>
        <time>2015-04-23T10:58:04Z</time>
      </trkpt>
      <trkpt lat="46.65357" lon="5.61017">
        <ele>498</ele>
        <time>2015-04-23T10:58:20Z</time>
      </trkpt>
      <trkpt lat="46.65365" lon="5.61023">
        <ele>496</ele>
        <time>2015-04-23T10:58:32Z</time>
      </trkpt>
      <trkpt lat="46.6538" lon="5.61039">
        <ele>493</ele>
        <time>2015-04-23T10:58:50Z</time>
      </trkpt>
      <trkpt lat="46.65401" lon="5.61088">
        <ele>488</ele>
        <time>2015-04-23T10:59:29Z</time>
      </trkpt>
      <trkpt lat="46.654" lon="5.61102">
        <ele>486</ele>
        <time>2015-04-23T10:59:41Z</time>
      </trkpt>
      <trkpt lat="46.65396" lon="5.61116">
        <ele>483</ele>
        <time>2015-04-23T10:59:50Z</time>
      </trkpt>
      <trkpt lat="46.654" lon="5.6113">
        <ele>481</ele>
        <time>2015-04-23T11:00:00Z</time>
      </trkpt>
      <trkpt lat="46.65397" lon="5.61143">
        <ele>479</ele>
        <time>2015-04-23T11:00:09Z</time>
      </trkpt>
      <trkpt lat="46.65401" lon="5.61173">
        <ele>477</ele>
        <time>2015-04-23T11:00:25Z</time>
      </trkpt>
      <trkpt lat="46.6541" lon="5.61178">
        <ele>477</ele>
        <time>2015-04-23T11:00:33Z</time>
      </trkpt>
      <trkpt lat="46.65419" lon="5.61188">
        <ele>477</ele>
        <time>2015-04-23T11:00:48Z</time>
      </trkpt>
      <trkpt lat="46.65417" lon="5.61201">
        <ele>477</ele>
        <time>2015-04-23T11:00:58Z</time>
      </trkpt>
      <trkpt lat="46.65418" lon="5.61216">
        <ele>476</ele>
        <time>2015-04-23T11:01:07Z</time>
      </trkpt>
      <trkpt lat="46.65425" lon="5.61225">
        <ele>475</ele>
        <time>2015-04-23T11:01:14Z</time>
      </trkpt>
      <trkpt lat="46.65433" lon="5.61232">
        <ele>473</ele>
        <time>2015-04-23T11:01:25Z</time>
      </trkpt>
      <trkpt lat="46.65438" lon="5.61242">
        <ele>471</ele>
        <time>2015-04-23T11:01:36Z</time>
      </trkpt>
      <trkpt lat="46.6544" lon="5.61256">
        <ele>470</ele>
        <time>2015-04-23T11:01:46Z</time>
      </trkpt>
      <trkpt lat="46.65461" lon="5.61287">
        <ele>464</ele>
        <time>2015-04-23T11:02:29Z</time>
      </trkpt>
      <trkpt lat="46.65468" lon="5.61297">
        <ele>463</ele>
        <time>2015-04-23T11:02:39Z</time>
      </trkpt>
      <trkpt lat="46.6547" lon="5.61324">
        <ele>461</ele>
        <time>2015-04-23T11:03:02Z</time>
      </trkpt>
      <trkpt lat="46.65468" lon="5.61331">
        <ele>461</ele>
        <time>2015-04-23T11:03:14Z</time>
      </trkpt>
      <trkpt lat="46.6546" lon="5.6132">
        <ele>461</ele>
        <time>2015-04-23T11:03:31Z</time>
      </trkpt>
      <trkpt lat="46.65453" lon="5.61326">
        <ele>460</ele>
        <time>2015-04-23T11:03:58Z</time>
      </trkpt>
      <trkpt lat="46.65461" lon="5.61333">
        <ele>460</ele>
        <time>2015-04-23T11:04:02Z</time>
      </trkpt>
      <trkpt lat="46.65465" lon="5.61346">
        <ele>460</ele>
        <time>2015-04-23T11:04:10Z</time>
      </trkpt>
      <trkpt lat="46.65466" lon="5.61384">
        <ele>464</ele>
        <time>2015-04-23T11:04:46Z</time>
      </trkpt>
      <trkpt lat="46.65457" lon="5.61392">
        <ele>464</ele>
        <time>2015-04-23T11:04:51Z</time>
      </trkpt>
      <trkpt lat="46.65476" lon="5.61397">
        <ele>465</ele>
        <time>2015-04-23T11:04:56Z</time>
      </trkpt>
      <trkpt lat="46.65486" lon="5.61396">
        <ele>466</ele>
        <time>2015-04-23T11:05:06Z</time>
      </trkpt>
      <trkpt lat="46.65487" lon="5.61411">
        <ele>467</ele>
        <time>2015-04-23T11:05:15Z</time>
      </trkpt>
      <trkpt lat="46.65481" lon="5.61421">
        <ele>468</ele>
        <time>2015-04-23T11:05:23Z</time>
      </trkpt>
      <trkpt lat="46.65487" lon="5.61429">
        <ele>469</ele>
        <time>2015-04-23T11:05:35Z</time>
      </trkpt>
      <trkpt lat="46.65485" lon="5.61443">
        <ele>470</ele>
        <time>2015-04-23T11:05:44Z</time>
      </trkpt>
      <trkpt lat="46.65492" lon="5.61454">
        <ele>473</ele>
        <time>2015-04-23T11:06:00Z</time>
      </trkpt>
      <trkpt lat="46.65496" lon="5.61462">
        <ele>476</ele>
        <time>2015-04-23T11:06:21Z</time>
      </trkpt>
      <trkpt lat="46.65505" lon="5.61457">
        <ele>477</ele>
        <time>2015-04-23T11:06:29Z</time>
      </trkpt>
      <trkpt lat="46.65513" lon="5.61464">
        <ele>478</ele>
        <time>2015-04-23T11:06:36Z</time>
      </trkpt>
      <trkpt lat="46.65523" lon="5.61466">
        <ele>479</ele>
        <time>2015-04-23T11:06:41Z</time>
      </trkpt>
      <trkpt lat="46.65532" lon="5.61464">
        <ele>479</ele>
        <time>2015-04-23T11:06:48Z</time>
      </trkpt>
      <trkpt lat="46.6554" lon="5.61469">
        <ele>481</ele>
        <time>2015-04-23T11:07:03Z</time>
      </trkpt>
      <trkpt lat="46.65543" lon="5.61482">
        <ele>483</ele>
        <time>2015-04-23T11:07:16Z</time>
      </trkpt>
      <trkpt lat="46.65552" lon="5.61482">
        <ele>488</ele>
        <time>2015-04-23T11:07:27Z</time>
      </trkpt>
      <trkpt lat="46.65558" lon="5.61478">
        <ele>489</ele>
        <time>2015-04-23T11:07:30Z</time>
      </trkpt>
      <trkpt lat="46.65567" lon="5.61485">
        <ele>492</ele>
        <time>2015-04-23T11:07:42Z</time>
      </trkpt>
      <trkpt lat="46.65575" lon="5.61492">
        <ele>493</ele>
        <time>2015-04-23T11:07:48Z</time>
      </trkpt>
      <trkpt lat="46.65583" lon="5.61488">
        <ele>493</ele>
        <time>2015-04-23T11:07:54Z</time>
      </trkpt>
      <trkpt lat="46.65588" lon="5.6148">
        <ele>495</ele>
        <time>2015-04-23T11:08:10Z</time>
      </trkpt>
      <trkpt lat="46.65592" lon="5.61475">
        <ele>497</ele>
        <time>2015-04-23T11:08:46Z</time>
      </trkpt>
      <trkpt lat="46.656" lon="5.6148">
        <ele>499</ele>
        <time>2015-04-23T11:08:58Z</time>
      </trkpt>
      <trkpt lat="46.65601" lon="5.61494">
        <ele>501</ele>
        <time>2015-04-23T11:09:08Z</time>
      </trkpt>
      <trkpt lat="46.65595" lon="5.61504">
        <ele>503</ele>
        <time>2015-04-23T11:09:24Z</time>
      </trkpt>
      <trkpt lat="46.65584" lon="5.61532">
        <ele>513</ele>
        <time>2015-04-23T11:10:02Z</time>
      </trkpt>
      <trkpt lat="46.65578" lon="5.61543">
        <ele>514</ele>
        <time>2015-04-23T11:10:10Z</time>
      </trkpt>
      <trkpt lat="46.65569" lon="5.61548">
        <ele>515</ele>
        <time>2015-04-23T11:10:20Z</time>
      </trkpt>
      <trkpt lat="46.6556" lon="5.61546">
        <ele>518</ele>
        <time>2015-04-23T11:10:33Z</time>
      </trkpt>
      <trkpt lat="46.65544" lon="5.61559">
        <ele>526</ele>
        <time>2015-04-23T11:11:00Z</time>
      </trkpt>
      <trkpt lat="46.65538" lon="5.61568">
        <ele>531</ele>
        <time>2015-04-23T11:12:36Z</time>
      </trkpt>
      <trkpt lat="46.65532" lon="5.61565">
        <ele>532</ele>
        <time>2015-04-23T11:14:13Z</time>
      </trkpt>
      <trkpt lat="46.65528" lon="5.6156">
        <ele>532</ele>
        <time>2015-04-23T11:14:19Z</time>
      </trkpt>
      <trkpt lat="46.6552" lon="5.61551">
        <ele>532</ele>
        <time>2015-04-23T11:14:28Z</time>
      </trkpt>
      <trkpt lat="46.65498" lon="5.61526">
        <ele>533</ele>
        <time>2015-04-23T11:14:50Z</time>
      </trkpt>
      <trkpt lat="46.65464" lon="5.61498">
        <ele>539</ele>
        <time>2015-04-23T11:15:26Z</time>
      </trkpt>
      <trkpt lat="46.65456" lon="5.6149">
        <ele>540</ele>
        <time>2015-04-23T11:15:34Z</time>
      </trkpt>
      <trkpt lat="46.65456" lon="5.61477">
        <ele>539</ele>
        <time>2015-04-23T11:15:48Z</time>
      </trkpt>
      <trkpt lat="46.65465" lon="5.61472">
        <ele>538</ele>
        <time>2015-04-23T11:16:01Z</time>
      </trkpt>
      <trkpt lat="46.65461" lon="5.6147">
        <ele>532</ele>
        <time>2015-04-23T11:18:58Z</time>
      </trkpt>
      <trkpt lat="46.65456" lon="5.61492">
        <ele>531</ele>
        <time>2015-04-23T11:19:45Z</time>
      </trkpt>
      <trkpt lat="46.65464" lon="5.615">
        <ele>531</ele>
        <time>2015-04-23T11:19:58Z</time>
      </trkpt>
      <trkpt lat="46.65497" lon="5.61528">
        <ele>528</ele>
        <time>2015-04-23T11:20:37Z</time>
      </trkpt>
      <trkpt lat="46.65526" lon="5.61561">
        <ele>529</ele>
        <time>2015-04-23T11:21:07Z</time>
      </trkpt>
      <trkpt lat="46.65533" lon="5.6157">
        <ele>530</ele>
        <time>2015-04-23T11:21:16Z</time>
      </trkpt>
      <trkpt lat="46.65538" lon="5.61571">
        <ele>530</ele>
        <time>2015-04-23T11:21:20Z</time>
      </trkpt>
      <trkpt lat="46.65542" lon="5.61568">
        <ele>529</ele>
        <time>2015-04-23T11:21:25Z</time>
      </trkpt>
      <trkpt lat="46.65546" lon="5.61565">
        <ele>529</ele>
        <time>2015-04-23T11:21:31Z</time>
      </trkpt>
      <trkpt lat="46.65551" lon="5.61566">
        <ele>529</ele>
        <time>2015-04-23T11:21:35Z</time>
      </trkpt>
      <trkpt lat="46.6556" lon="5.61563">
        <ele>527</ele>
        <time>2015-04-23T11:21:53Z</time>
      </trkpt>
      <trkpt lat="46.65571" lon="5.61556">
        <ele>527</ele>
        <time>2015-04-23T11:22:22Z</time>
      </trkpt>
      <trkpt lat="46.65565" lon="5.61561">
        <ele>526</ele>
        <time>2015-04-23T11:22:45Z</time>
      </trkpt>
      <trkpt lat="46.6556" lon="5.61551">
        <ele>527</ele>
        <time>2015-04-23T11:22:56Z</time>
      </trkpt>
      <trkpt lat="46.65569" lon="5.61547">
        <ele>526</ele>
        <time>2015-04-23T11:23:09Z</time>
      </trkpt>
      <trkpt lat="46.65575" lon="5.61537">
        <ele>526</ele>
        <time>2015-04-23T11:23:17Z</time>
      </trkpt>
      <trkpt lat="46.65579" lon="5.61524">
        <ele>525</ele>
        <time>2015-04-23T11:23:26Z</time>
      </trkpt>
      <trkpt lat="46.65592" lon="5.61503">
        <ele>524</ele>
        <time>2015-04-23T11:23:32Z</time>
      </trkpt>
      <trkpt lat="46.65602" lon="5.61492">
        <ele>523</ele>
        <time>2015-04-23T11:23:53Z</time>
      </trkpt>
      <trkpt lat="46.65608" lon="5.61482">
        <ele>524</ele>
        <time>2015-04-23T11:24:06Z</time>
      </trkpt>
      <trkpt lat="46.65613" lon="5.6147">
        <ele>526</ele>
        <time>2015-04-23T11:24:23Z</time>
      </trkpt>
      <trkpt lat="46.65611" lon="5.61457">
        <ele>526</ele>
        <time>2015-04-23T11:24:33Z</time>
      </trkpt>
      <trkpt lat="46.65615" lon="5.61433">
        <ele>528</ele>
        <time>2015-04-23T11:25:03Z</time>
      </trkpt>
      <trkpt lat="46.65625" lon="5.61411">
        <ele>529</ele>
        <time>2015-04-23T11:25:24Z</time>
      </trkpt>
      <trkpt lat="46.65628" lon="5.6137">
        <ele>530</ele>
        <time>2015-04-23T11:26:00Z</time>
      </trkpt>
      <trkpt lat="46.65622" lon="5.61361">
        <ele>531</ele>
        <time>2015-04-23T11:26:09Z</time>
      </trkpt>
      <trkpt lat="46.65626" lon="5.61347">
        <ele>532</ele>
        <time>2015-04-23T11:26:29Z</time>
      </trkpt>
      <trkpt lat="46.65631" lon="5.61336">
        <ele>533</ele>
        <time>2015-04-23T11:26:47Z</time>
      </trkpt>
      <trkpt lat="46.65634" lon="5.61324">
        <ele>533</ele>
        <time>2015-04-23T11:26:57Z</time>
      </trkpt>
      <trkpt lat="46.65631" lon="5.61311">
        <ele>533</ele>
        <time>2015-04-23T11:27:11Z</time>
      </trkpt>
      <trkpt lat="46.65637" lon="5.61301">
        <ele>532</ele>
        <time>2015-04-23T11:27:21Z</time>
      </trkpt>
      <trkpt lat="46.65645" lon="5.61294">
        <ele>531</ele>
        <time>2015-04-23T11:27:29Z</time>
      </trkpt>
      <trkpt lat="46.65652" lon="5.61284">
        <ele>531</ele>
        <time>2015-04-23T11:27:44Z</time>
      </trkpt>
      <trkpt lat="46.65662" lon="5.61285">
        <ele>531</ele>
        <time>2015-04-23T11:27:56Z</time>
      </trkpt>
      <trkpt lat="46.65668" lon="5.61271">
        <ele>531</ele>
        <time>2015-04-23T11:28:07Z</time>
      </trkpt>
      <trkpt lat="46.65675" lon="5.61261">
        <ele>531</ele>
        <time>2015-04-23T11:28:14Z</time>
      </trkpt>
      <trkpt lat="46.65684" lon="5.61255">
        <ele>532</ele>
        <time>2015-04-23T11:28:26Z</time>
      </trkpt>
      <trkpt lat="46.657" lon="5.61241">
        <ele>532</ele>
        <time>2015-04-23T11:28:52Z</time>
      </trkpt>
      <trkpt lat="46.65709" lon="5.61237">
        <ele>530</ele>
        <time>2015-04-23T11:29:02Z</time>
      </trkpt>
      <trkpt lat="46.65725" lon="5.61223">
        <ele>530</ele>
        <time>2015-04-23T11:29:25Z</time>
      </trkpt>
      <trkpt lat="46.65732" lon="5.61214">
        <ele>530</ele>
        <time>2015-04-23T11:29:38Z</time>
      </trkpt>
      <trkpt lat="46.65733" lon="5.6121">
        <ele>533</ele>
        <time>2015-04-23T11:31:03Z</time>
      </trkpt>
      <trkpt lat="46.65738" lon="5.61214">
        <ele>534</ele>
        <time>2015-04-23T11:32:02Z</time>
      </trkpt>
      <trkpt lat="46.65747" lon="5.61218">
        <ele>534</ele>
        <time>2015-04-23T11:32:19Z</time>
      </trkpt>
      <trkpt lat="46.65772" lon="5.61217">
        <ele>528</ele>
        <time>2015-04-23T11:32:37Z</time>
      </trkpt>
      <trkpt lat="46.6577" lon="5.61211">
        <ele>525</ele>
        <time>2015-04-23T11:32:50Z</time>
      </trkpt>
      <trkpt lat="46.65777" lon="5.61197">
        <ele>523</ele>
        <time>2015-04-23T11:33:11Z</time>
      </trkpt>
      <trkpt lat="46.65785" lon="5.61193">
        <ele>521</ele>
        <time>2015-04-23T11:33:20Z</time>
      </trkpt>
      <trkpt lat="46.65797" lon="5.61193">
        <ele>519</ele>
        <time>2015-04-23T11:33:39Z</time>
      </trkpt>
      <trkpt lat="46.65804" lon="5.61184">
        <ele>518</ele>
        <time>2015-04-23T11:33:51Z</time>
      </trkpt>
      <trkpt lat="46.65813" lon="5.61182">
        <ele>517</ele>
        <time>2015-04-23T11:34:04Z</time>
      </trkpt>
      <trkpt lat="46.65822" lon="5.61188">
        <ele>516</ele>
        <time>2015-04-23T11:34:11Z</time>
      </trkpt>
      <trkpt lat="46.65868" lon="5.61206">
        <ele>516</ele>
        <time>2015-04-23T11:34:47Z</time>
      </trkpt>
      <trkpt lat="46.65874" lon="5.61208">
        <ele>515</ele>
        <time>2015-04-23T11:35:05Z</time>
      </trkpt>
      <trkpt lat="46.65919" lon="5.6121">
        <ele>512</ele>
        <time>2015-04-23T11:35:38Z</time>
      </trkpt>
      <trkpt lat="46.6593" lon="5.61209">
        <ele>510</ele>
        <time>2015-04-23T11:35:57Z</time>
      </trkpt>
      <trkpt lat="46.6594" lon="5.61204">
        <ele>509</ele>
        <time>2015-04-23T11:36:08Z</time>
      </trkpt>
      <trkpt lat="46.65947" lon="5.61196">
        <ele>510</ele>
        <time>2015-04-23T11:36:16Z</time>
      </trkpt>
      <trkpt lat="46.65956" lon="5.612">
        <ele>511</ele>
        <time>2015-04-23T11:36:27Z</time>
      </trkpt>
      <trkpt lat="46.65974" lon="5.61204">
        <ele>511</ele>
        <time>2015-04-23T11:36:45Z</time>
      </trkpt>
      <trkpt lat="46.65985" lon="5.6121">
        <ele>512</ele>
        <time>2015-04-23T11:37:03Z</time>
      </trkpt>
      <trkpt lat="46.65994" lon="5.61205">
        <ele>512</ele>
        <time>2015-04-23T11:37:12Z</time>
      </trkpt>
      <trkpt lat="46.66002" lon="5.61199">
        <ele>512</ele>
        <time>2015-04-23T11:37:21Z</time>
      </trkpt>
      <trkpt lat="46.66021" lon="5.61203">
        <ele>511</ele>
        <time>2015-04-23T11:37:44Z</time>
      </trkpt>
      <trkpt lat="46.66033" lon="5.61209">
        <ele>511</ele>
        <time>2015-04-23T11:37:48Z</time>
      </trkpt>
      <trkpt lat="46.66038" lon="5.61207">
        <ele>510</ele>
        <time>2015-04-23T11:38:00Z</time>
      </trkpt>
      <trkpt lat="46.66047" lon="5.61213">
        <ele>511</ele>
        <time>2015-04-23T11:38:12Z</time>
      </trkpt>
      <trkpt lat="46.66055" lon="5.61228">
        <ele>510</ele>
        <time>2015-04-23T11:38:34Z</time>
      </trkpt>
      <trkpt lat="46.66082" lon="5.61238">
        <ele>510</ele>
        <time>2015-04-23T11:39:06Z</time>
      </trkpt>
      <trkpt lat="46.66106" lon="5.61235">
        <ele>508</ele>
        <time>2015-04-23T11:39:43Z</time>
      </trkpt>
      <trkpt lat="46.66114" lon="5.61232">
        <ele>508</ele>
        <time>2015-04-23T11:39:55Z</time>
      </trkpt>
      <trkpt lat="46.6612" lon="5.61238">
        <ele>507</ele>
        <time>2015-04-23T11:40:11Z</time>
      </trkpt>
      <trkpt lat="46.6612" lon="5.61251">
        <ele>505</ele>
        <time>2015-04-23T11:40:26Z</time>
      </trkpt>
      <trkpt lat="46.66124" lon="5.61266">
        <ele>505</ele>
        <time>2015-04-23T11:40:38Z</time>
      </trkpt>
      <trkpt lat="46.66122" lon="5.61279">
        <ele>505</ele>
        <time>2015-04-23T11:40:55Z</time>
      </trkpt>
      <trkpt lat="46.66107" lon="5.61296">
        <ele>506</ele>
        <time>2015-04-23T11:41:11Z</time>
      </trkpt>
      <trkpt lat="46.66108" lon="5.6131">
        <ele>506</ele>
        <time>2015-04-23T11:41:20Z</time>
      </trkpt>
      <trkpt lat="46.66116" lon="5.61317">
        <ele>506</ele>
        <time>2015-04-23T11:41:32Z</time>
      </trkpt>
      <trkpt lat="46.66133" lon="5.61331">
        <ele>505</ele>
        <time>2015-04-23T11:42:05Z</time>
      </trkpt>
      <trkpt lat="46.66142" lon="5.61332">
        <ele>505</ele>
        <time>2015-04-23T11:42:16Z</time>
      </trkpt>
      <trkpt lat="46.66155" lon="5.61333">
        <ele>504</ele>
        <time>2015-04-23T11:42:37Z</time>
      </trkpt>
      <trkpt lat="46.66164" lon="5.61331">
        <ele>504</ele>
        <time>2015-04-23T11:42:48Z</time>
      </trkpt>
      <trkpt lat="46.66173" lon="5.61337">
        <ele>504</ele>
        <time>2015-04-23T11:42:54Z</time>
      </trkpt>
      <trkpt lat="46.66184" lon="5.61336">
        <ele>505</ele>
        <time>2015-04-23T11:43:01Z</time>
      </trkpt>
      <trkpt lat="46.66203" lon="5.61333">
        <ele>507</ele>
        <time>2015-04-23T11:43:32Z</time>
      </trkpt>
      <trkpt lat="46.66212" lon="5.61343">
        <ele>505</ele>
        <time>2015-04-23T11:43:55Z</time>
      </trkpt>
      <trkpt lat="46.66221" lon="5.6135">
        <ele>505</ele>
        <time>2015-04-23T11:44:08Z</time>
      </trkpt>
      <trkpt lat="46.6623" lon="5.61354">
        <ele>505</ele>
        <time>2015-04-23T11:44:17Z</time>
      </trkpt>
      <trkpt lat="46.66241" lon="5.6136">
        <ele>505</ele>
        <time>2015-04-23T11:44:35Z</time>
      </trkpt>
      <trkpt lat="46.66251" lon="5.61362">
        <ele>504</ele>
        <time>2015-04-23T11:44:46Z</time>
      </trkpt>
      <trkpt lat="46.66258" lon="5.61363">
        <ele>506</ele>
        <time>2015-04-23T11:45:04Z</time>
      </trkpt>
      <trkpt lat="46.66264" lon="5.61372">
        <ele>509</ele>
        <time>2015-04-23T11:45:15Z</time>
      </trkpt>
      <trkpt lat="46.66285" lon="5.61378">
        <ele>513</ele>
        <time>2015-04-23T11:45:43Z</time>
      </trkpt>
      <trkpt lat="46.66295" lon="5.61377">
        <ele>514</ele>
        <time>2015-04-23T11:45:55Z</time>
      </trkpt>
      <trkpt lat="46.66304" lon="5.61375">
        <ele>515</ele>
        <time>2015-04-23T11:46:01Z</time>
      </trkpt>
      <trkpt lat="46.66314" lon="5.61377">
        <ele>515</ele>
        <time>2015-04-23T11:46:09Z</time>
      </trkpt>
      <trkpt lat="46.66322" lon="5.61378">
        <ele>515</ele>
        <time>2015-04-23T11:46:16Z</time>
      </trkpt>
      <trkpt lat="46.66339" lon="5.61364">
        <ele>519</ele>
        <time>2015-04-23T11:46:49Z</time>
      </trkpt>
      <trkpt lat="46.66349" lon="5.61371">
        <ele>519</ele>
        <time>2015-04-23T11:46:55Z</time>
      </trkpt>
      <trkpt lat="46.66358" lon="5.61374">
        <ele>520</ele>
        <time>2015-04-23T11:47:00Z</time>
      </trkpt>
      <trkpt lat="46.66366" lon="5.61363">
        <ele>520</ele>
        <time>2015-04-23T11:47:18Z</time>
      </trkpt>
      <trkpt lat="46.66374" lon="5.61356">
        <ele>520</ele>
        <time>2015-04-23T11:47:33Z</time>
      </trkpt>
      <trkpt lat="46.66383" lon="5.61359">
        <ele>520</ele>
        <time>2015-04-23T11:47:45Z</time>
      </trkpt>
      <trkpt lat="46.6639" lon="5.6135">
        <ele>522</ele>
        <time>2015-04-23T11:47:56Z</time>
      </trkpt>
      <trkpt lat="46.66395" lon="5.61338">
        <ele>522</ele>
        <time>2015-04-23T11:48:06Z</time>
      </trkpt>
      <trkpt lat="46.66403" lon="5.61332">
        <ele>522</ele>
        <time>2015-04-23T11:48:17Z</time>
      </trkpt>
      <trkpt lat="46.66413" lon="5.61323">
        <ele>522</ele>
        <time>2015-04-23T11:48:34Z</time>
      </trkpt>
      <trkpt lat="46.66437" lon="5.61295">
        <ele>524</ele>
        <time>2015-04-23T11:49:17Z</time>
      </trkpt>
      <trkpt lat="46.66445" lon="5.61287">
        <ele>524</ele>
        <time>2015-04-23T11:49:27Z</time>
      </trkpt>
      <trkpt lat="46.6645" lon="5.61275">
        <ele>524</ele>
        <time>2015-04-23T11:49:33Z</time>
      </trkpt>
      <trkpt lat="46.66453" lon="5.61263">
        <ele>522</ele>
        <time>2015-04-23T11:49:45Z</time>
      </trkpt>
      <trkpt lat="46.66458" lon="5.61251">
        <ele>522</ele>
        <time>2015-04-23T11:49:58Z</time>
      </trkpt>
      <trkpt lat="46.66464" lon="5.61241">
        <ele>524</ele>
        <time>2015-04-23T11:50:09Z</time>
      </trkpt>
      <trkpt lat="46.66472" lon="5.61237">
        <ele>524</ele>
        <time>2015-04-23T11:50:21Z</time>
      </trkpt>
      <trkpt lat="46.66475" lon="5.61222">
        <ele>524</ele>
        <time>2015-04-23T11:50:33Z</time>
      </trkpt>
      <trkpt lat="46.66479" lon="5.61213">
        <ele>524</ele>
        <time>2015-04-23T11:50:51Z</time>
      </trkpt>
      <trkpt lat="46.66474" lon="5.61191">
        <ele>526</ele>
        <time>2015-04-23T11:51:34Z</time>
      </trkpt>
      <trkpt lat="46.66474" lon="5.61189">
        <ele>524</ele>
        <time>2015-04-23T11:52:17Z</time>
      </trkpt>
      <trkpt lat="46.66476" lon="5.6119">
        <ele>524</ele>
        <time>2015-04-23T11:53:15Z</time>
      </trkpt>
      <trkpt lat="46.66475" lon="5.61207">
        <ele>524</ele>
        <time>2015-04-23T11:53:30Z</time>
      </trkpt>
      <trkpt lat="46.6648" lon="5.61219">
        <ele>522</ele>
        <time>2015-04-23T11:53:40Z</time>
      </trkpt>
      <trkpt lat="46.66487" lon="5.61225">
        <ele>520</ele>
        <time>2015-04-23T11:53:59Z</time>
      </trkpt>
      <trkpt lat="46.66494" lon="5.61224">
        <ele>521</ele>
        <time>2015-04-23T11:54:33Z</time>
      </trkpt>
      <trkpt lat="46.66504" lon="5.61202">
        <ele>529</ele>
        <time>2015-04-23T11:55:23Z</time>
      </trkpt>
      <trkpt lat="46.66511" lon="5.61191">
        <ele>533</ele>
        <time>2015-04-23T11:55:45Z</time>
      </trkpt>
      <trkpt lat="46.66505" lon="5.61181">
        <ele>534</ele>
        <time>2015-04-23T11:55:58Z</time>
      </trkpt>
      <trkpt lat="46.66509" lon="5.61169">
        <ele>535</ele>
        <time>2015-04-23T11:56:07Z</time>
      </trkpt>
      <trkpt lat="46.66516" lon="5.61159">
        <ele>535</ele>
        <time>2015-04-23T11:56:19Z</time>
      </trkpt>
      <trkpt lat="46.66515" lon="5.61141">
        <ele>536</ele>
        <time>2015-04-23T11:56:36Z</time>
      </trkpt>
      <trkpt lat="46.66514" lon="5.61127">
        <ele>538</ele>
        <time>2015-04-23T11:56:43Z</time>
      </trkpt>
      <trkpt lat="46.66532" lon="5.6107">
        <ele>543</ele>
        <time>2015-04-23T11:57:42Z</time>
      </trkpt>
      <trkpt lat="46.66528" lon="5.61058">
        <ele>543</ele>
        <time>2015-04-23T11:58:01Z</time>
      </trkpt>
      <trkpt lat="46.66523" lon="5.61055">
        <ele>544</ele>
        <time>2015-04-23T11:58:14Z</time>
      </trkpt>
      <trkpt lat="46.665" lon="5.61058">
        <ele>536</ele>
        <time>2015-04-23T11:58:56Z</time>
      </trkpt>
      <trkpt lat="46.66495" lon="5.61048">
        <ele>534</ele>
        <time>2015-04-23T11:59:12Z</time>
      </trkpt>
      <trkpt lat="46.66491" lon="5.61035">
        <ele>530</ele>
        <time>2015-04-23T11:59:30Z</time>
      </trkpt>
      <trkpt lat="46.66485" lon="5.60983">
        <ele>526</ele>
        <time>2015-04-23T12:00:07Z</time>
      </trkpt>
      <trkpt lat="46.66484" lon="5.60969">
        <ele>524</ele>
        <time>2015-04-23T12:00:21Z</time>
      </trkpt>
      <trkpt lat="46.66488" lon="5.60956">
        <ele>522</ele>
        <time>2015-04-23T12:00:28Z</time>
      </trkpt>
      <trkpt lat="46.66484" lon="5.60942">
        <ele>521</ele>
        <time>2015-04-23T12:00:39Z</time>
      </trkpt>
      <trkpt lat="46.66467" lon="5.60908">
        <ele>517</ele>
        <time>2015-04-23T12:01:09Z</time>
      </trkpt>
      <trkpt lat="46.66455" lon="5.60888">
        <ele>517</ele>
        <time>2015-04-23T12:01:32Z</time>
      </trkpt>
      <trkpt lat="46.66446" lon="5.60864">
        <ele>513</ele>
        <time>2015-04-23T12:01:53Z</time>
      </trkpt>
      <trkpt lat="46.66447" lon="5.6085">
        <ele>512</ele>
        <time>2015-04-23T12:02:02Z</time>
      </trkpt>
      <trkpt lat="46.66449" lon="5.60837">
        <ele>512</ele>
        <time>2015-04-23T12:02:19Z</time>
      </trkpt>
      <trkpt lat="46.66448" lon="5.60823">
        <ele>512</ele>
        <time>2015-04-23T12:02:25Z</time>
      </trkpt>
      <trkpt lat="46.66442" lon="5.6081">
        <ele>511</ele>
        <time>2015-04-23T12:02:32Z</time>
      </trkpt>
      <trkpt lat="46.66437" lon="5.60799">
        <ele>513</ele>
        <time>2015-04-23T12:02:42Z</time>
      </trkpt>
      <trkpt lat="46.6644" lon="5.60786">
        <ele>515</ele>
        <time>2015-04-23T12:02:48Z</time>
      </trkpt>
      <trkpt lat="46.66437" lon="5.60772">
        <ele>515</ele>
        <time>2015-04-23T12:02:56Z</time>
      </trkpt>
      <trkpt lat="46.66432" lon="5.60761">
        <ele>516</ele>
        <time>2015-04-23T12:03:10Z</time>
      </trkpt>
      <trkpt lat="46.66423" lon="5.60755">
        <ele>517</ele>
        <time>2015-04-23T12:03:21Z</time>
      </trkpt>
      <trkpt lat="46.66417" lon="5.60745">
        <ele>518</ele>
        <time>2015-04-23T12:03:32Z</time>
      </trkpt>
      <trkpt lat="46.66421" lon="5.60718">
        <ele>518</ele>
        <time>2015-04-23T12:03:51Z</time>
      </trkpt>
      <trkpt lat="46.66416" lon="5.60707">
        <ele>517</ele>
        <time>2015-04-23T12:04:00Z</time>
      </trkpt>
      <trkpt lat="46.66395" lon="5.60679">
        <ele>518</ele>
        <time>2015-04-23T12:04:30Z</time>
      </trkpt>
      <trkpt lat="46.66385" lon="5.60654">
        <ele>517</ele>
        <time>2015-04-23T12:04:50Z</time>
      </trkpt>
      <trkpt lat="46.66379" lon="5.60649">
        <ele>518</ele>
        <time>2015-04-23T12:05:06Z</time>
      </trkpt>
      <trkpt lat="46.66372" lon="5.6064">
        <ele>518</ele>
        <time>2015-04-23T12:05:21Z</time>
      </trkpt>
      <trkpt lat="46.66366" lon="5.60631">
        <ele>517</ele>
        <time>2015-04-23T12:05:34Z</time>
      </trkpt>
      <trkpt lat="46.66349" lon="5.60623">
        <ele>517</ele>
        <time>2015-04-23T12:05:44Z</time>
      </trkpt>
      <trkpt lat="46.66346" lon="5.60608">
        <ele>516</ele>
        <time>2015-04-23T12:05:57Z</time>
      </trkpt>
      <trkpt lat="46.66339" lon="5.60599">
        <ele>514</ele>
        <time>2015-04-23T12:06:09Z</time>
      </trkpt>
      <trkpt lat="46.66325" lon="5.60579">
        <ele>513</ele>
        <time>2015-04-23T12:06:23Z</time>
      </trkpt>
      <trkpt lat="46.66316" lon="5.60575">
        <ele>513</ele>
        <time>2015-04-23T12:06:31Z</time>
      </trkpt>
      <trkpt lat="46.66307" lon="5.60575">
        <ele>512</ele>
        <time>2015-04-23T12:06:39Z</time>
      </trkpt>
      <trkpt lat="46.66285" lon="5.60572">
        <ele>514</ele>
        <time>2015-04-23T12:07:07Z</time>
      </trkpt>
      <trkpt lat="46.66279" lon="5.60562">
        <ele>514</ele>
        <time>2015-04-23T12:07:17Z</time>
      </trkpt>
      <trkpt lat="46.66254" lon="5.60543">
        <ele>514</ele>
        <time>2015-04-23T12:07:42Z</time>
      </trkpt>
      <trkpt lat="46.66227" lon="5.60525">
        <ele>512</ele>
        <time>2015-04-23T12:08:06Z</time>
      </trkpt>
      <trkpt lat="46.66217" lon="5.60528">
        <ele>511</ele>
        <time>2015-04-23T12:08:16Z</time>
      </trkpt>
      <trkpt lat="46.66211" lon="5.60529">
        <ele>510</ele>
        <time>2015-04-23T12:08:30Z</time>
      </trkpt>
      <trkpt lat="46.66206" lon="5.60519">
        <ele>509</ele>
        <time>2015-04-23T12:08:37Z</time>
      </trkpt>
      <trkpt lat="46.66197" lon="5.60513">
        <ele>506</ele>
        <time>2015-04-23T12:08:47Z</time>
      </trkpt>
      <trkpt lat="46.66188" lon="5.60513">
        <ele>505</ele>
        <time>2015-04-23T12:08:57Z</time>
      </trkpt>
      <trkpt lat="46.66185" lon="5.60506">
        <ele>505</ele>
        <time>2015-04-23T12:09:09Z</time>
      </trkpt>
      <trkpt lat="46.66194" lon="5.605">
        <ele>505</ele>
        <time>2015-04-23T12:09:17Z</time>
      </trkpt>
      <trkpt lat="46.66189" lon="5.60508">
        <ele>500</ele>
        <time>2015-04-23T12:11:51Z</time>
      </trkpt>
      <trkpt lat="46.66181" lon="5.605">
        <ele>498</ele>
        <time>2015-04-23T12:12:23Z</time>
      </trkpt>
      <trkpt lat="46.66172" lon="5.60498">
        <ele>493</ele>
        <time>2015-04-23T12:12:38Z</time>
      </trkpt>
      <trkpt lat="46.66169" lon="5.60485">
        <ele>491</ele>
        <time>2015-04-23T12:12:44Z</time>
      </trkpt>
      <trkpt lat="46.6616" lon="5.60481">
        <ele>487</ele>
        <time>2015-04-23T12:12:53Z</time>
      </trkpt>
      <trkpt lat="46.66153" lon="5.60471">
        <ele>486</ele>
        <time>2015-04-23T12:13:07Z</time>
      </trkpt>
      <trkpt lat="46.66136" lon="5.60458">
        <ele>486</ele>
        <time>2015-04-23T12:13:37Z</time>
      </trkpt>
      <trkpt lat="46.66129" lon="5.60449">
        <ele>488</ele>
        <time>2015-04-23T12:13:47Z</time>
      </trkpt>
      <trkpt lat="46.6612" lon="5.60424">
        <ele>491</ele>
        <time>2015-04-23T12:14:08Z</time>
      </trkpt>
      <trkpt lat="46.66108" lon="5.60418">
        <ele>492</ele>
        <time>2015-04-23T12:14:29Z</time>
      </trkpt>
      <trkpt lat="46.66099" lon="5.60414">
        <ele>492</ele>
        <time>2015-04-23T12:14:39Z</time>
      </trkpt>
      <trkpt lat="46.66081" lon="5.60405">
        <ele>491</ele>
        <time>2015-04-23T12:15:00Z</time>
      </trkpt>
      <trkpt lat="46.66071" lon="5.60402">
        <ele>491</ele>
        <time>2015-04-23T12:15:04Z</time>
      </trkpt>
      <trkpt lat="46.66064" lon="5.60392">
        <ele>492</ele>
        <time>2015-04-23T12:15:15Z</time>
      </trkpt>
      <trkpt lat="46.66055" lon="5.60388">
        <ele>493</ele>
        <time>2015-04-23T12:15:23Z</time>
      </trkpt>
      <trkpt lat="46.66049" lon="5.60377">
        <ele>493</ele>
        <time>2015-04-23T12:15:33Z</time>
      </trkpt>
      <trkpt lat="46.66041" lon="5.60371">
        <ele>492</ele>
        <time>2015-04-23T12:15:43Z</time>
      </trkpt>
      <trkpt lat="46.66032" lon="5.60371">
        <ele>492</ele>
        <time>2015-04-23T12:15:49Z</time>
      </trkpt>
      <trkpt lat="46.66028" lon="5.60359">
        <ele>491</ele>
        <time>2015-04-23T12:16:01Z</time>
      </trkpt>
      <trkpt lat="46.66019" lon="5.60334">
        <ele>491</ele>
        <time>2015-04-23T12:16:16Z</time>
      </trkpt>
      <trkpt lat="46.66004" lon="5.60316">
        <ele>491</ele>
        <time>2015-04-23T12:16:30Z</time>
      </trkpt>
      <trkpt lat="46.65998" lon="5.60277">
        <ele>491</ele>
        <time>2015-04-23T12:16:57Z</time>
      </trkpt>
      <trkpt lat="46.65992" lon="5.60252">
        <ele>491</ele>
        <time>2015-04-23T12:17:13Z</time>
      </trkpt>
      <trkpt lat="46.65985" lon="5.60216">
        <ele>498</ele>
        <time>2015-04-23T12:17:52Z</time>
      </trkpt>
      <trkpt lat="46.65986" lon="5.60212">
        <ele>500</ele>
        <time>2015-04-23T12:18:16Z</time>
      </trkpt>
      <trkpt lat="46.65988" lon="5.60208">
        <ele>500</ele>
        <time>2015-04-23T12:18:25Z</time>
      </trkpt>
      <trkpt lat="46.65991" lon="5.60206">
        <ele>500</ele>
        <time>2015-04-23T12:18:36Z</time>
      </trkpt>
      <trkpt lat="46.65988" lon="5.60193">
        <ele>500</ele>
        <time>2015-04-23T12:18:47Z</time>
      </trkpt>
      <trkpt lat="46.65997" lon="5.60181">
        <ele>501</ele>
        <time>2015-04-23T12:19:13Z</time>
      </trkpt>
      <trkpt lat="46.66003" lon="5.60179">
        <ele>502</ele>
        <time>2015-04-23T12:22:27Z</time>
      </trkpt>
      <trkpt lat="46.66013" lon="5.60179">
        <ele>501</ele>
        <time>2015-04-23T12:22:35Z</time>
      </trkpt>
      <trkpt lat="46.66011" lon="5.6017">
        <ele>501</ele>
        <time>2015-04-23T12:22:50Z</time>
      </trkpt>
      <trkpt lat="46.66002" lon="5.60173">
        <ele>501</ele>
        <time>2015-04-23T12:23:03Z</time>
      </trkpt>
      <trkpt lat="46.65997" lon="5.60176">
        <ele>502</ele>
        <time>2015-04-23T12:23:17Z</time>
      </trkpt>
      <trkpt lat="46.65995" lon="5.60184">
        <ele>504</ele>
        <time>2015-04-23T12:25:22Z</time>
      </trkpt>
      <trkpt lat="46.65993" lon="5.60179">
        <ele>506</ele>
        <time>2015-04-23T12:26:48Z</time>
      </trkpt>
      <trkpt lat="46.6599" lon="5.60182">
        <ele>507</ele>
        <time>2015-04-23T12:27:34Z</time>
      </trkpt>
      <trkpt lat="46.65994" lon="5.60185">
        <ele>507</ele>
        <time>2015-04-23T12:27:49Z</time>
      </trkpt>
      <trkpt lat="46.65996" lon="5.60186">
        <ele>505</ele>
        <time>2015-04-23T12:28:40Z</time>
      </trkpt>
      <trkpt lat="46.65998" lon="5.60173">
        <ele>504</ele>
        <time>2015-04-23T12:29:07Z</time>
      </trkpt>
      <trkpt lat="46.65995" lon="5.60175">
        <ele>503</ele>
        <time>2015-04-23T12:29:28Z</time>
      </trkpt>
      <trkpt lat="46.65994" lon="5.60182">
        <ele>503</ele>
        <time>2015-04-23T12:29:36Z</time>
      </trkpt>
      <trkpt lat="46.65995" lon="5.60195">
        <ele>502</ele>
        <time>2015-04-23T12:29:47Z</time>
      </trkpt>
      <trkpt lat="46.65993" lon="5.60203">
        <ele>499</ele>
        <time>2015-04-23T12:29:51Z</time>
      </trkpt>
      <trkpt lat="46.65993" lon="5.60199">
        <ele>497</ele>
        <time>2015-04-23T12:30:15Z</time>
      </trkpt>
      <trkpt lat="46.65993" lon="5.6019">
        <ele>497</ele>
        <time>2015-04-23T12:30:23Z</time>
      </trkpt>
      <trkpt lat="46.65995" lon="5.60188">
        <ele>498</ele>
        <time>2015-04-23T12:30:40Z</time>
      </trkpt>
      <trkpt lat="46.65993" lon="5.60204">
        <ele>498</ele>
        <time>2015-04-23T12:30:56Z</time>
      </trkpt>
      <trkpt lat="46.65991" lon="5.60211">
        <ele>497</ele>
        <time>2015-04-23T12:31:00Z</time>
      </trkpt>
      <trkpt lat="46.65993" lon="5.60217">
        <ele>495</ele>
        <time>2015-04-23T12:31:06Z</time>
      </trkpt>
      <trkpt lat="46.65999" lon="5.60228">
        <ele>492</ele>
        <time>2015-04-23T12:31:18Z</time>
      </trkpt>
      <trkpt lat="46.66004" lon="5.60255">
        <ele>490</ele>
        <time>2015-04-23T12:31:37Z</time>
      </trkpt>
      <trkpt lat="46.66002" lon="5.60244">
        <ele>493</ele>
        <time>2015-04-23T12:31:58Z</time>
      </trkpt>
      <trkpt lat="46.66001" lon="5.60217">
        <ele>498</ele>
        <time>2015-04-23T12:32:22Z</time>
      </trkpt>
      <trkpt lat="46.66003" lon="5.60208">
        <ele>501</ele>
        <time>2015-04-23T12:32:30Z</time>
      </trkpt>
      <trkpt lat="46.66027" lon="5.60187">
        <ele>506</ele>
        <time>2015-04-23T12:33:01Z</time>
      </trkpt>
      <trkpt lat="46.66036" lon="5.60186">
        <ele>508</ele>
        <time>2015-04-23T12:33:12Z</time>
      </trkpt>
      <trkpt lat="46.66062" lon="5.60168">
        <ele>510</ele>
        <time>2015-04-23T12:33:42Z</time>
      </trkpt>
      <trkpt lat="46.66097" lon="5.60141">
        <ele>517</ele>
        <time>2015-04-23T12:34:20Z</time>
      </trkpt>
      <trkpt lat="46.66133" lon="5.60135">
        <ele>524</ele>
        <time>2015-04-23T12:34:53Z</time>
      </trkpt>
      <trkpt lat="46.6617" lon="5.60146">
        <ele>528</ele>
        <time>2015-04-23T12:35:30Z</time>
      </trkpt>
      <trkpt lat="46.66174" lon="5.60154">
        <ele>528</ele>
        <time>2015-04-23T12:35:56Z</time>
      </trkpt>
      <trkpt lat="46.6618" lon="5.60164">
        <ele>529</ele>
        <time>2015-04-23T12:36:15Z</time>
      </trkpt>
      <trkpt lat="46.66186" lon="5.60177">
        <ele>532</ele>
        <time>2015-04-23T12:37:06Z</time>
      </trkpt>
      <trkpt lat="46.66188" lon="5.6019">
        <ele>531</ele>
        <time>2015-04-23T12:37:15Z</time>
      </trkpt>
      <trkpt lat="46.66195" lon="5.602">
        <ele>531</ele>
        <time>2015-04-23T12:37:28Z</time>
      </trkpt>
      <trkpt lat="46.66204" lon="5.60203">
        <ele>531</ele>
        <time>2015-04-23T12:37:36Z</time>
      </trkpt>
      <trkpt lat="46.66222" lon="5.60218">
        <ele>530</ele>
        <time>2015-04-23T12:37:51Z</time>
      </trkpt>
      <trkpt lat="46.66227" lon="5.6023">
        <ele>530</ele>
        <time>2015-04-23T12:38:03Z</time>
      </trkpt>
      <trkpt lat="46.66235" lon="5.60238">
        <ele>531</ele>
        <time>2015-04-23T12:38:13Z</time>
      </trkpt>
      <trkpt lat="46.66243" lon="5.60245">
        <ele>530</ele>
        <time>2015-04-23T12:38:22Z</time>
      </trkpt>
      <trkpt lat="46.6625" lon="5.60254">
        <ele>531</ele>
        <time>2015-04-23T12:38:31Z</time>
      </trkpt>
      <trkpt lat="46.66259" lon="5.6026">
        <ele>534</ele>
        <time>2015-04-23T12:38:42Z</time>
      </trkpt>
      <trkpt lat="46.66259" lon="5.60259">
        <ele>543</ele>
        <time>2015-04-23T12:40:08Z</time>
      </trkpt>
      <trkpt lat="46.66266" lon="5.60275">
        <ele>541</ele>
        <time>2015-04-23T12:40:37Z</time>
      </trkpt>
      <trkpt lat="46.66271" lon="5.60287">
        <ele>542</ele>
        <time>2015-04-23T12:40:46Z</time>
      </trkpt>
      <trkpt lat="46.66301" lon="5.60325">
        <ele>552</ele>
        <time>2015-04-23T12:41:19Z</time>
      </trkpt>
      <trkpt lat="46.66305" lon="5.60329">
        <ele>553</ele>
        <time>2015-04-23T12:41:24Z</time>
      </trkpt>
      <trkpt lat="46.66308" lon="5.60335">
        <ele>552</ele>
        <time>2015-04-23T12:41:28Z</time>
      </trkpt>
      <trkpt lat="46.66334" lon="5.60385">
        <ele>541</ele>
        <time>2015-04-23T12:42:03Z</time>
      </trkpt>
      <trkpt lat="46.6636" lon="5.60443">
        <ele>535</ele>
        <time>2015-04-23T12:42:40Z</time>
      </trkpt>
      <trkpt lat="46.6637" lon="5.60469">
        <ele>532</ele>
        <time>2015-04-23T12:42:56Z</time>
      </trkpt>
      <trkpt lat="46.66401" lon="5.60522">
        <ele>531</ele>
        <time>2015-04-23T12:43:33Z</time>
      </trkpt>
      <trkpt lat="46.66429" lon="5.60562">
        <ele>532</ele>
        <time>2015-04-23T12:44:06Z</time>
      </trkpt>
      <trkpt lat="46.66436" lon="5.60572">
        <ele>532</ele>
        <time>2015-04-23T12:44:14Z</time>
      </trkpt>
      <trkpt lat="46.6646" lon="5.60591">
        <ele>537</ele>
        <time>2015-04-23T12:44:42Z</time>
      </trkpt>
      <trkpt lat="46.66465" lon="5.60579">
        <ele>539</ele>
        <time>2015-04-23T12:44:49Z</time>
      </trkpt>
      <trkpt lat="46.66473" lon="5.60555">
        <ele>544</ele>
        <time>2015-04-23T12:45:02Z</time>
      </trkpt>
      <trkpt lat="46.66479" lon="5.60544">
        <ele>544</ele>
        <time>2015-04-23T12:45:10Z</time>
      </trkpt>
      <trkpt lat="46.6648" lon="5.60531">
        <ele>545</ele>
        <time>2015-04-23T12:45:17Z</time>
      </trkpt>
      <trkpt lat="46.66484" lon="5.60519">
        <ele>545</ele>
        <time>2015-04-23T12:45:24Z</time>
      </trkpt>
      <trkpt lat="46.66486" lon="5.60492">
        <ele>547</ele>
        <time>2015-04-23T12:45:37Z</time>
      </trkpt>
      <trkpt lat="46.66483" lon="5.60449">
        <ele>548</ele>
        <time>2015-04-23T12:46:00Z</time>
      </trkpt>
      <trkpt lat="46.66479" lon="5.60393">
        <ele>552</ele>
        <time>2015-04-23T12:46:32Z</time>
      </trkpt>
      <trkpt lat="46.66471" lon="5.60346">
        <ele>555</ele>
        <time>2015-04-23T12:47:03Z</time>
      </trkpt>
      <trkpt lat="46.6647" lon="5.60338">
        <ele>555</ele>
        <time>2015-04-23T12:47:09Z</time>
      </trkpt>
      <trkpt lat="46.66468" lon="5.6033">
        <ele>555</ele>
        <time>2015-04-23T12:47:13Z</time>
      </trkpt>
      <trkpt lat="46.66469" lon="5.60317">
        <ele>555</ele>
        <time>2015-04-23T12:47:21Z</time>
      </trkpt>
      <trkpt lat="46.66467" lon="5.6031">
        <ele>555</ele>
        <time>2015-04-23T12:47:26Z</time>
      </trkpt>
      <trkpt lat="46.66465" lon="5.60296">
        <ele>556</ele>
        <time>2015-04-23T12:47:34Z</time>
      </trkpt>
      <trkpt lat="46.66463" lon="5.6029">
        <ele>557</ele>
        <time>2015-04-23T12:47:41Z</time>
      </trkpt>
      <trkpt lat="46.6646" lon="5.60284">
        <ele>557</ele>
        <time>2015-04-23T12:47:50Z</time>
      </trkpt>
      <trkpt lat="46.66461" lon="5.60279">
        <ele>557</ele>
        <time>2015-04-23T12:47:59Z</time>
      </trkpt>
      <trkpt lat="46.66463" lon="5.60275">
        <ele>556</ele>
        <time>2015-04-23T12:48:38Z</time>
      </trkpt>
      <trkpt lat="46.6646" lon="5.6027">
        <ele>556</ele>
        <time>2015-04-23T12:49:17Z</time>
      </trkpt>
      <trkpt lat="46.66451" lon="5.60259">
        <ele>555</ele>
        <time>2015-04-23T12:49:52Z</time>
      </trkpt>
      <trkpt lat="46.66455" lon="5.60247">
        <ele>558</ele>
        <time>2015-04-23T12:50:03Z</time>
      </trkpt>
      <trkpt lat="46.66462" lon="5.60242">
        <ele>557</ele>
        <time>2015-04-23T12:50:21Z</time>
      </trkpt>
      <trkpt lat="46.66463" lon="5.60228">
        <ele>554</ele>
        <time>2015-04-23T12:50:51Z</time>
      </trkpt>
      <trkpt lat="46.66461" lon="5.60221">
        <ele>552</ele>
        <time>2015-04-23T12:52:55Z</time>
      </trkpt>
      <trkpt lat="46.66463" lon="5.60224">
        <ele>555</ele>
        <time>2015-04-23T12:55:32Z</time>
      </trkpt>
      <trkpt lat="46.66461" lon="5.60248">
        <ele>554</ele>
        <time>2015-04-23T12:56:04Z</time>
      </trkpt>
      <trkpt lat="46.66464" lon="5.60264">
        <ele>545</ele>
        <time>2015-04-23T12:57:20Z</time>
      </trkpt>
      <trkpt lat="46.66462" lon="5.60281">
        <ele>545</ele>
        <time>2015-04-23T12:58:40Z</time>
      </trkpt>
      <trkpt lat="46.66467" lon="5.60307">
        <ele>545</ele>
        <time>2015-04-23T12:58:55Z</time>
      </trkpt>
      <trkpt lat="46.66472" lon="5.60362">
        <ele>543</ele>
        <time>2015-04-23T12:59:31Z</time>
      </trkpt>
      <trkpt lat="46.66473" lon="5.60391">
        <ele>542</ele>
        <time>2015-04-23T12:59:44Z</time>
      </trkpt>
      <trkpt lat="46.6648" lon="5.60439">
        <ele>539</ele>
        <time>2015-04-23T13:00:14Z</time>
      </trkpt>
      <trkpt lat="46.66482" lon="5.60479">
        <ele>536</ele>
        <time>2015-04-23T13:00:36Z</time>
      </trkpt>
      <trkpt lat="46.66483" lon="5.60508">
        <ele>536</ele>
        <time>2015-04-23T13:00:56Z</time>
      </trkpt>
      <trkpt lat="46.66472" lon="5.60547">
        <ele>537</ele>
        <time>2015-04-23T13:01:19Z</time>
      </trkpt>
      <trkpt lat="46.66467" lon="5.60574">
        <ele>539</ele>
        <time>2015-04-23T13:01:38Z</time>
      </trkpt>
      <trkpt lat="46.66464" lon="5.60588">
        <ele>539</ele>
        <time>2015-04-23T13:01:48Z</time>
      </trkpt>
      <trkpt lat="46.66456" lon="5.60593">
        <ele>539</ele>
        <time>2015-04-23T13:01:56Z</time>
      </trkpt>
      <trkpt lat="46.66449" lon="5.60584">
        <ele>540</ele>
        <time>2015-04-23T13:02:03Z</time>
      </trkpt>
      <trkpt lat="46.66432" lon="5.60551">
        <ele>543</ele>
        <time>2015-04-23T13:02:24Z</time>
      </trkpt>
      <trkpt lat="46.66425" lon="5.60541">
        <ele>543</ele>
        <time>2015-04-23T13:02:31Z</time>
      </trkpt>
      <trkpt lat="46.66419" lon="5.60531">
        <ele>544</ele>
        <time>2015-04-23T13:02:38Z</time>
      </trkpt>
      <trkpt lat="46.6641" lon="5.60517">
        <ele>544</ele>
        <time>2015-04-23T13:02:48Z</time>
      </trkpt>
      <trkpt lat="46.66399" lon="5.60502">
        <ele>543</ele>
        <time>2015-04-23T13:03:01Z</time>
      </trkpt>
      <trkpt lat="46.66372" lon="5.60453">
        <ele>544</ele>
        <time>2015-04-23T13:03:33Z</time>
      </trkpt>
      <trkpt lat="46.66369" lon="5.60447">
        <ele>544</ele>
        <time>2015-04-23T13:03:36Z</time>
      </trkpt>
      <trkpt lat="46.66366" lon="5.60442">
        <ele>543</ele>
        <time>2015-04-23T13:03:41Z</time>
      </trkpt>
      <trkpt lat="46.66363" lon="5.60437">
        <ele>543</ele>
        <time>2015-04-23T13:03:44Z</time>
      </trkpt>
      <trkpt lat="46.6636" lon="5.60431">
        <ele>542</ele>
        <time>2015-04-23T13:03:49Z</time>
      </trkpt>
      <trkpt lat="46.66336" lon="5.60378">
        <ele>538</ele>
        <time>2015-04-23T13:04:21Z</time>
      </trkpt>
      <trkpt lat="46.66326" lon="5.60365">
        <ele>536</ele>
        <time>2015-04-23T13:04:32Z</time>
      </trkpt>
      <trkpt lat="46.66323" lon="5.60359">
        <ele>536</ele>
        <time>2015-04-23T13:04:37Z</time>
      </trkpt>
      <trkpt lat="46.66315" lon="5.60346">
        <ele>537</ele>
        <time>2015-04-23T13:04:45Z</time>
      </trkpt>
      <trkpt lat="46.66306" lon="5.60333">
        <ele>536</ele>
        <time>2015-04-23T13:04:55Z</time>
      </trkpt>
      <trkpt lat="46.66302" lon="5.60327">
        <ele>536</ele>
        <time>2015-04-23T13:04:59Z</time>
      </trkpt>
      <trkpt lat="46.66281" lon="5.60299">
        <ele>540</ele>
        <time>2015-04-23T13:05:25Z</time>
      </trkpt>
      <trkpt lat="46.66274" lon="5.60291">
        <ele>540</ele>
        <time>2015-04-23T13:05:38Z</time>
      </trkpt>
      <trkpt lat="46.66269" lon="5.60271">
        <ele>541</ele>
        <time>2015-04-23T13:05:47Z</time>
      </trkpt>
      <trkpt lat="46.66267" lon="5.6026">
        <ele>543</ele>
        <time>2015-04-23T13:06:07Z</time>
      </trkpt>
      <trkpt lat="46.66255" lon="5.60252">
        <ele>544</ele>
        <time>2015-04-23T13:06:33Z</time>
      </trkpt>
      <trkpt lat="46.66235" lon="5.60241">
        <ele>543</ele>
        <time>2015-04-23T13:07:08Z</time>
      </trkpt>
      <trkpt lat="46.66228" lon="5.60232">
        <ele>541</ele>
        <time>2015-04-23T13:07:16Z</time>
      </trkpt>
      <trkpt lat="46.66222" lon="5.60222">
        <ele>541</ele>
        <time>2015-04-23T13:07:24Z</time>
      </trkpt>
      <trkpt lat="46.66215" lon="5.60211">
        <ele>541</ele>
        <time>2015-04-23T13:07:32Z</time>
      </trkpt>
      <trkpt lat="46.66183" lon="5.60181">
        <ele>541</ele>
        <time>2015-04-23T13:08:03Z</time>
      </trkpt>
      <trkpt lat="46.66177" lon="5.6017">
        <ele>541</ele>
        <time>2015-04-23T13:08:14Z</time>
      </trkpt>
      <trkpt lat="46.66176" lon="5.60157">
        <ele>541</ele>
        <time>2015-04-23T13:08:23Z</time>
      </trkpt>
      <trkpt lat="46.66182" lon="5.60146">
        <ele>540</ele>
        <time>2015-04-23T13:08:35Z</time>
      </trkpt>
      <trkpt lat="46.66189" lon="5.60137">
        <ele>538</ele>
        <time>2015-04-23T13:08:45Z</time>
      </trkpt>
      <trkpt lat="46.66207" lon="5.60133">
        <ele>534</ele>
        <time>2015-04-23T13:09:03Z</time>
      </trkpt>
      <trkpt lat="46.66245" lon="5.60135">
        <ele>530</ele>
        <time>2015-04-23T13:09:37Z</time>
      </trkpt>
      <trkpt lat="46.66272" lon="5.60121">
        <ele>527</ele>
        <time>2015-04-23T13:10:06Z</time>
      </trkpt>
      <trkpt lat="46.6628" lon="5.60113">
        <ele>526</ele>
        <time>2015-04-23T13:10:14Z</time>
      </trkpt>
      <trkpt lat="46.66284" lon="5.60101">
        <ele>525</ele>
        <time>2015-04-23T13:10:21Z</time>
      </trkpt>
      <trkpt lat="46.66294" lon="5.60099">
        <ele>524</ele>
        <time>2015-04-23T13:10:30Z</time>
      </trkpt>
      <trkpt lat="46.66329" lon="5.60081">
        <ele>520</ele>
        <time>2015-04-23T13:11:05Z</time>
      </trkpt>
      <trkpt lat="46.66355" lon="5.60065">
        <ele>512</ele>
        <time>2015-04-23T13:11:39Z</time>
      </trkpt>
      <trkpt lat="46.66361" lon="5.60054">
        <ele>511</ele>
        <time>2015-04-23T13:11:51Z</time>
      </trkpt>
      <trkpt lat="46.66369" lon="5.60048">
        <ele>510</ele>
        <time>2015-04-23T13:12:03Z</time>
      </trkpt>
      <trkpt lat="46.66407" lon="5.60038">
        <ele>505</ele>
        <time>2015-04-23T13:12:39Z</time>
      </trkpt>
      <trkpt lat="46.66413" lon="5.60028">
        <ele>504</ele>
        <time>2015-04-23T13:12:49Z</time>
      </trkpt>
      <trkpt lat="46.66422" lon="5.60024">
        <ele>503</ele>
        <time>2015-04-23T13:12:59Z</time>
      </trkpt>
      <trkpt lat="46.66431" lon="5.60026">
        <ele>501</ele>
        <time>2015-04-23T13:13:09Z</time>
      </trkpt>
      <trkpt lat="46.66447" lon="5.60014">
        <ele>498</ele>
        <time>2015-04-23T13:13:25Z</time>
      </trkpt>
      <trkpt lat="46.66457" lon="5.60008">
        <ele>498</ele>
        <time>2015-04-23T13:13:34Z</time>
      </trkpt>
      <trkpt lat="46.66471" lon="5.59992">
        <ele>496</ele>
        <time>2015-04-23T13:13:54Z</time>
      </trkpt>
      <trkpt lat="46.66481" lon="5.59988">
        <ele>495</ele>
        <time>2015-04-23T13:14:07Z</time>
      </trkpt>
      <trkpt lat="46.66487" lon="5.59978">
        <ele>494</ele>
        <time>2015-04-23T13:14:13Z</time>
      </trkpt>
      <trkpt lat="46.66496" lon="5.59972">
        <ele>493</ele>
        <time>2015-04-23T13:14:24Z</time>
      </trkpt>
      <trkpt lat="46.66527" lon="5.59938">
        <ele>495</ele>
        <time>2015-04-23T13:14:54Z</time>
      </trkpt>
      <trkpt lat="46.66559" lon="5.59911">
        <ele>492</ele>
        <time>2015-04-23T13:15:29Z</time>
      </trkpt>
      <trkpt lat="46.66569" lon="5.59887">
        <ele>492</ele>
        <time>2015-04-23T13:15:49Z</time>
      </trkpt>
      <trkpt lat="46.66596" lon="5.59849">
        <ele>489</ele>
        <time>2015-04-23T13:16:27Z</time>
      </trkpt>
      <trkpt lat="46.66603" lon="5.5984">
        <ele>488</ele>
        <time>2015-04-23T13:16:38Z</time>
      </trkpt>
      <trkpt lat="46.66615" lon="5.59788">
        <ele>484</ele>
        <time>2015-04-23T13:17:18Z</time>
      </trkpt>
      <trkpt lat="46.66616" lon="5.59762">
        <ele>483</ele>
        <time>2015-04-23T13:17:37Z</time>
      </trkpt>
      <trkpt lat="46.66635" lon="5.59715">
        <ele>476</ele>
        <time>2015-04-23T13:18:19Z</time>
      </trkpt>
      <trkpt lat="46.66642" lon="5.5969">
        <ele>473</ele>
        <time>2015-04-23T13:18:41Z</time>
      </trkpt>
      <trkpt lat="46.66642" lon="5.59649">
        <ele>471</ele>
        <time>2015-04-23T13:19:13Z</time>
      </trkpt>
      <trkpt lat="46.66648" lon="5.5961">
        <ele>463</ele>
        <time>2015-04-23T13:19:50Z</time>
      </trkpt>
      <trkpt lat="46.66651" lon="5.5958">
        <ele>458</ele>
        <time>2015-04-23T13:20:21Z</time>
      </trkpt>
      <trkpt lat="46.66653" lon="5.59538">
        <ele>452</ele>
        <time>2015-04-23T13:21:02Z</time>
      </trkpt>
      <trkpt lat="46.66654" lon="5.59524">
        <ele>451</ele>
        <time>2015-04-23T13:21:06Z</time>
      </trkpt>
      <trkpt lat="46.6665" lon="5.59506">
        <ele>448</ele>
        <time>2015-04-23T13:21:26Z</time>
      </trkpt>
      <trkpt lat="46.66643" lon="5.59498">
        <ele>446</ele>
        <time>2015-04-23T13:21:36Z</time>
      </trkpt>
      <trkpt lat="46.66634" lon="5.59473">
        <ele>439</ele>
        <time>2015-04-23T13:21:58Z</time>
      </trkpt>
      <trkpt lat="46.66638" lon="5.5946">
        <ele>437</ele>
        <time>2015-04-23T13:22:09Z</time>
      </trkpt>
      <trkpt lat="46.66633" lon="5.59448">
        <ele>436</ele>
        <time>2015-04-23T13:22:17Z</time>
      </trkpt>
      <trkpt lat="46.66631" lon="5.59434">
        <ele>436</ele>
        <time>2015-04-23T13:22:24Z</time>
      </trkpt>
      <trkpt lat="46.66617" lon="5.59416">
        <ele>435</ele>
        <time>2015-04-23T13:22:45Z</time>
      </trkpt>
      <trkpt lat="46.66614" lon="5.59389">
        <ele>430</ele>
        <time>2015-04-23T13:23:01Z</time>
      </trkpt>
      <trkpt lat="46.66616" lon="5.59363">
        <ele>427</ele>
        <time>2015-04-23T13:23:18Z</time>
      </trkpt>
      <trkpt lat="46.66619" lon="5.59349">
        <ele>427</ele>
        <time>2015-04-23T13:23:27Z</time>
      </trkpt>
      <trkpt lat="46.66629" lon="5.59326">
        <ele>423</ele>
        <time>2015-04-23T13:23:49Z</time>
      </trkpt>
      <trkpt lat="46.66625" lon="5.59297">
        <ele>419</ele>
        <time>2015-04-23T13:24:05Z</time>
      </trkpt>
      <trkpt lat="46.66625" lon="5.5927">
        <ele>419</ele>
        <time>2015-04-23T13:24:27Z</time>
      </trkpt>
      <trkpt lat="46.66618" lon="5.59245">
        <ele>416</ele>
        <time>2015-04-23T13:24:54Z</time>
      </trkpt>
      <trkpt lat="46.6662" lon="5.59231">
        <ele>413</ele>
        <time>2015-04-23T13:25:01Z</time>
      </trkpt>
      <trkpt lat="46.66631" lon="5.59193">
        <ele>411</ele>
        <time>2015-04-23T13:25:22Z</time>
      </trkpt>
      <trkpt lat="46.66632" lon="5.5918">
        <ele>407</ele>
        <time>2015-04-23T13:25:38Z</time>
      </trkpt>
      <trkpt lat="46.66644" lon="5.59159">
        <ele>402</ele>
        <time>2015-04-23T13:25:56Z</time>
      </trkpt>
      <trkpt lat="46.66664" lon="5.59133">
        <ele>395</ele>
        <time>2015-04-23T13:26:29Z</time>
      </trkpt>
      <trkpt lat="46.66667" lon="5.59105">
        <ele>389</ele>
        <time>2015-04-23T13:26:50Z</time>
      </trkpt>
      <trkpt lat="46.66674" lon="5.59096">
        <ele>386</ele>
        <time>2015-04-23T13:27:02Z</time>
      </trkpt>
      <trkpt lat="46.66671" lon="5.59089">
        <ele>382</ele>
        <time>2015-04-23T13:30:22Z</time>
      </trkpt>
      <trkpt lat="46.66666" lon="5.59088">
        <ele>382</ele>
        <time>2015-04-23T13:30:56Z</time>
      </trkpt>
      <trkpt lat="46.66667" lon="5.59095">
        <ele>381</ele>
        <time>2015-04-23T13:31:42Z</time>
      </trkpt>
      <trkpt lat="46.66671" lon="5.59091">
        <ele>379</ele>
        <time>2015-04-23T13:33:36Z</time>
      </trkpt>
      <trkpt lat="46.66676" lon="5.59087">
        <ele>379</ele>
        <time>2015-04-23T13:34:19Z</time>
      </trkpt>
      <trkpt lat="46.66679" lon="5.59077">
        <ele>378</ele>
        <time>2015-04-23T13:34:40Z</time>
      </trkpt>
      <trkpt lat="46.66683" lon="5.59064">
        <ele>380</ele>
        <time>2015-04-23T13:34:55Z</time>
      </trkpt>
      <trkpt lat="46.66687" lon="5.5906">
        <ele>380</ele>
        <time>2015-04-23T13:35:06Z</time>
      </trkpt>
      <trkpt lat="46.66689" lon="5.59046">
        <ele>379</ele>
        <time>2015-04-23T13:35:15Z</time>
      </trkpt>
      <trkpt lat="46.66689" lon="5.59041">
        <ele>379</ele>
        <time>2015-04-23T13:35:18Z</time>
      </trkpt>
      <trkpt lat="46.6669" lon="5.59034">
        <ele>380</ele>
        <time>2015-04-23T13:35:22Z</time>
      </trkpt>
      <trkpt lat="46.66695" lon="5.5902">
        <ele>381</ele>
        <time>2015-04-23T13:35:28Z</time>
      </trkpt>
      <trkpt lat="46.66701" lon="5.5901">
        <ele>382</ele>
        <time>2015-04-23T13:35:36Z</time>
      </trkpt>
      <trkpt lat="46.66702" lon="5.58995">
        <ele>383</ele>
        <time>2015-04-23T13:35:44Z</time>
      </trkpt>
      <trkpt lat="46.66702" lon="5.5899">
        <ele>383</ele>
        <time>2015-04-23T13:35:52Z</time>
      </trkpt>
      <trkpt lat="46.66707" lon="5.58978">
        <ele>381</ele>
        <time>2015-04-23T13:36:04Z</time>
      </trkpt>
      <trkpt lat="46.66716" lon="5.58968">
        <ele>379</ele>
        <time>2015-04-23T13:36:21Z</time>
      </trkpt>
      <trkpt lat="46.66741" lon="5.58957">
        <ele>377</ele>
        <time>2015-04-23T13:36:42Z</time>
      </trkpt>
      <trkpt lat="46.66739" lon="5.58955">
        <ele>376</ele>
        <time>2015-04-23T13:36:56Z</time>
      </trkpt>
      <trkpt lat="46.6672" lon="5.58967">
        <ele>374</ele>
        <time>2015-04-23T13:37:17Z</time>
      </trkpt>
      <trkpt lat="46.66726" lon="5.58958">
        <ele>371</ele>
        <time>2015-04-23T13:38:40Z</time>
      </trkpt>
      <trkpt lat="46.66734" lon="5.58949">
        <ele>371</ele>
        <time>2015-04-23T13:38:49Z</time>
      </trkpt>
      <trkpt lat="46.66739" lon="5.58937">
        <ele>368</ele>
        <time>2015-04-23T13:38:58Z</time>
      </trkpt>
      <trkpt lat="46.66751" lon="5.58934">
        <ele>363</ele>
        <time>2015-04-23T13:39:18Z</time>
      </trkpt>
      <trkpt lat="46.66759" lon="5.58941">
        <ele>363</ele>
        <time>2015-04-23T13:40:53Z</time>
      </trkpt>
      <trkpt lat="46.66769" lon="5.58939">
        <ele>363</ele>
        <time>2015-04-23T13:41:18Z</time>
      </trkpt>
      <trkpt lat="46.66778" lon="5.58933">
        <ele>360</ele>
        <time>2015-04-23T13:41:29Z</time>
      </trkpt>
      <trkpt lat="46.66797" lon="5.58904">
        <ele>356</ele>
        <time>2015-04-23T13:42:04Z</time>
      </trkpt>
      <trkpt lat="46.66817" lon="5.58871">
        <ele>351</ele>
        <time>2015-04-23T13:42:34Z</time>
      </trkpt>
      <trkpt lat="46.6684" lon="5.58835">
        <ele>350</ele>
        <time>2015-04-23T13:43:05Z</time>
      </trkpt>
      <trkpt lat="46.66845" lon="5.58824">
        <ele>351</ele>
        <time>2015-04-23T13:43:15Z</time>
      </trkpt>
      <trkpt lat="46.66849" lon="5.58818">
        <ele>351</ele>
        <time>2015-04-23T13:43:21Z</time>
      </trkpt>
      <trkpt lat="46.66855" lon="5.58806">
        <ele>349</ele>
        <time>2015-04-23T13:43:31Z</time>
      </trkpt>
      <trkpt lat="46.66861" lon="5.58804">
        <ele>348</ele>
        <time>2015-04-23T13:43:47Z</time>
      </trkpt>
      <trkpt lat="46.66866" lon="5.58802">
        <ele>348</ele>
        <time>2015-04-23T13:43:51Z</time>
      </trkpt>
      <trkpt lat="46.66868" lon="5.58805">
        <ele>348</ele>
        <time>2015-04-23T13:43:58Z</time>
      </trkpt>
      <trkpt lat="46.66871" lon="5.58811">
        <ele>349</ele>
        <time>2015-04-23T13:44:06Z</time>
      </trkpt>
      <trkpt lat="46.66874" lon="5.58816">
        <ele>348</ele>
        <time>2015-04-23T13:44:12Z</time>
      </trkpt>
      <trkpt lat="46.66874" lon="5.58822">
        <ele>351</ele>
        <time>2015-04-23T13:44:58Z</time>
      </trkpt>
      <trkpt lat="46.66878" lon="5.58821">
        <ele>348</ele>
        <time>2015-04-23T13:45:40Z</time>
      </trkpt>
      <trkpt lat="46.66875" lon="5.58809">
        <ele>347</ele>
        <time>2015-04-23T13:45:51Z</time>
      </trkpt>
      <trkpt lat="46.66874" lon="5.58813">
        <ele>347</ele>
        <time>2015-04-23T13:46:06Z</time>
      </trkpt>
      <trkpt lat="46.66876" lon="5.58817">
        <ele>347</ele>
        <time>2015-04-23T13:46:13Z</time>
      </trkpt>
    </trkseg>
  </trk>
</gpx>